Observation data for Aiken on 06/20/2019      Previous  Date       Current Mesonet Observations  Soil Data  Daily Summary Page  Observations in Plain Language
KAI1 200500Z 13010KT 22/19 A2988 RMK A01 T02230189  RH  081%=      5-min Rain = 0
KAI1 200501Z 13010KT 22/19 A2988 RMK A01 T02240189  RH  081%=      5-min Rain = 0
KAI1 200502Z 13010KT 22/19 A2988 RMK A01 T02240189  RH  080%=      5-min Rain = 0
KAI1 200503Z 14010KT 22/19 A2988 RMK A01 T02240189  RH  080%=      5-min Rain = 0
KAI1 200504Z 13009KT 22/19 A2988 RMK A01 T02240189  RH  080%=      5-min Rain = 0
KAI1 200505Z 14009KT 22/19 A2988 RMK A01 T02240189  RH  081%=      5-min Rain = 0
KAI1 200506Z 13009KT 22/19 A2988 RMK A01 T02240189  RH  081%=      5-min Rain = 0
KAI1 200507Z 13009KT 22/19 A2988 RMK A01 T02230189  RH  081%=      5-min Rain = 0
KAI1 200508Z 13009KT 22/19 A2988 RMK A01 T02220189  RH  081%=      5-min Rain = 0
KAI1 200509Z 13009KT 22/19 A2988 RMK A01 T02220189  RH  082%=      5-min Rain = 0
KAI1 200510Z 13008KT 22/19 A2988 RMK A01 T02220189  RH  082%=      5-min Rain = 0
KAI1 200511Z 12008KT 22/19 A2988 RMK A01 T02220189  RH  082%=      5-min Rain = 0
KAI1 200512Z 12008KT 22/19 A2988 RMK A01 T02210189  RH  082%=      5-min Rain = 0
KAI1 200513Z 12008KT 22/19 A2988 RMK A01 T02210189  RH  082%=      5-min Rain = 0
KAI1 200514Z 12008KT 22/19 A2988 RMK A01 T02210189  RH  082%=      5-min Rain = 0
KAI1 200515Z 13008KT 22/19 A2988 RMK A01 T02210189  RH  082%=      5-min Rain = 0
KAI1 200516Z 13009KT 22/19 A2988 RMK A01 T02210189  RH  082%=      5-min Rain = 0
KAI1 200517Z 13008KT 22/19 A2988 RMK A01 T02210189  RH  082%=      5-min Rain = 0
KAI1 200518Z 13009KT 22/19 A2988 RMK A01 T02210189  RH  082%=      5-min Rain = 0
KAI1 200519Z 13008KT 22/19 A2988 RMK A01 T02210188  RH  082%=      5-min Rain = 0
KAI1 200520Z 13008KT 22/19 A2988 RMK A01 T02210188  RH  082%=      5-min Rain = 0
KAI1 200521Z 13008KT 22/19 A2988 RMK A01 T02220189  RH  081%=      5-min Rain = 0
KAI1 200522Z 12008KT 22/19 A2988 RMK A01 T02210188  RH  081%=      5-min Rain = 0
KAI1 200523Z 13007KT 22/19 A2988 RMK A01 T02220188  RH  082%=      5-min Rain = 0
KAI1 200524Z 13008KT 22/19 A2988 RMK A01 T02210189  RH  082%=      5-min Rain = 0
KAI1 200525Z 13007KT 22/19 A2988 RMK A01 T02210189  RH  082%=      5-min Rain = 0
KAI1 200526Z 13008KT 22/19 A2988 RMK A01 T02210189  RH  082%=      5-min Rain = 0
KAI1 200527Z 13008KT 22/19 A2988 RMK A01 T02200189  RH  082%=      5-min Rain = 0
KAI1 200528Z 13008KT 22/19 A2988 RMK A01 T02200189  RH  083%=      5-min Rain = 0
KAI1 200529Z 13008KT 22/19 A2988 RMK A01 T02190189  RH  083%=      5-min Rain = 0
KAI1 200530Z 13009KT 22/19 A2988 RMK A01 T02190189  RH  083%=      5-min Rain = 0
KAI1 200531Z 13008KT 22/19 A2988 RMK A01 T02190189  RH  083%=      5-min Rain = 0
KAI1 200532Z 13008KT 22/19 A2988 RMK A01 T02190189  RH  083%=      5-min Rain = 0
KAI1 200533Z 13008KT 22/19 A2988 RMK A01 T02190189  RH  083%=      5-min Rain = 0
KAI1 200534Z 13008KT 22/19 A2988 RMK A01 T02180189  RH  083%=      5-min Rain = 0
KAI1 200535Z 14008KT 22/19 A2988 RMK A01 T02180189  RH  084%=      5-min Rain = 0
KAI1 200536Z 14009KT 22/19 A2988 RMK A01 T02180189  RH  084%=      5-min Rain = 0
KAI1 200537Z 14008KT 22/19 A2988 RMK A01 T02180189  RH  084%=      5-min Rain = 0
KAI1 200538Z 14009KT 22/19 A2988 RMK A01 T02180189  RH  084%=      5-min Rain = 0
KAI1 200539Z 14010KT 22/19 A2988 RMK A01 T02170189  RH  084%=      5-min Rain = 0
KAI1 200540Z 14010KT 22/19 A2988 RMK A01 T02180189  RH  084%=      5-min Rain = 0
KAI1 200541Z 14010KT 22/19 A2988 RMK A01 T02170189  RH  084%=      5-min Rain = 0
KAI1 200542Z 15009KT 22/19 A2988 RMK A01 T02170189  RH  084%=      5-min Rain = 0
KAI1 200543Z 15010KT 22/19 A2988 RMK A01 T02170188  RH  084%=      5-min Rain = 0
KAI1 200544Z 15010KT 22/19 A2988 RMK A01 T02170188  RH  084%=      5-min Rain = 0
KAI1 200545Z 15010KT 22/19 A2987 RMK A01 T02170188  RH  083%=      5-min Rain = 0
KAI1 200546Z 15009KT 22/19 A2987 RMK A01 T02170188  RH  083%=      5-min Rain = 0
KAI1 200547Z 15010KT 22/19 A2987 RMK A01 T02170188  RH  083%=      5-min Rain = 0
KAI1 200548Z 15010KT 22/19 A2987 RMK A01 T02170188  RH  083%=      5-min Rain = 0
KAI1 200549Z 15009KT 22/19 A2987 RMK A01 T02170187  RH  083%=      5-min Rain = 0
KAI1 200550Z 15009KT 22/19 A2987 RMK A01 T02170187  RH  083%=      5-min Rain = 0
KAI1 200551Z 15009KT 22/19 A2987 RMK A01 T02170187  RH  083%=      5-min Rain = 0
KAI1 200552Z 15008KT 22/19 A2987 RMK A01 T02170188  RH  083%=      5-min Rain = 0
KAI1 200553Z 15008KT 22/19 A2987 RMK A01 T02170187  RH  083%=      5-min Rain = 0
KAI1 200554Z 15008KT 22/19 A2987 RMK A01 T02170188  RH  083%=      5-min Rain = 0
KAI1 200555Z 14008KT 22/19 A2987 RMK A01 T02160187  RH  083%=      5-min Rain = 0
KAI1 200556Z 14008KT 22/19 A2987 RMK A01 T02160187  RH  083%=      5-min Rain = 0
KAI1 200557Z 14008KT 22/19 A2987 RMK A01 T02160187  RH  083%=      5-min Rain = 0
KAI1 200558Z 14007KT 22/19 A2987 RMK A01 T02160187  RH  084%=      5-min Rain = 0
KAI1 200559Z 14007KT 22/19 A2987 RMK A01 T02160187  RH  084%=      5-min Rain = 0
KAI1 200600Z 14007KT 22/19 A2987 RMK A01 T02160187  RH  084%=      5-min Rain = 0
KAI1 200601Z 14007KT 22/19 A2987 RMK A01 T02150187  RH  084%=      5-min Rain = 0
KAI1 200602Z 14007KT 22/19 A2987 RMK A01 T02150187  RH  084%=      5-min Rain = 0
KAI1 200603Z 14007KT 22/19 A2987 RMK A01 T02150187  RH  084%=      5-min Rain = 0
KAI1 200604Z 14007KT 22/19 A2987 RMK A01 T02160187  RH  084%=      5-min Rain = 0
KAI1 200605Z 14007KT 22/19 A2987 RMK A01 T02160187  RH  084%=      5-min Rain = 0
KAI1 200606Z 14007KT 22/19 A2987 RMK A01 T02150187  RH  084%=      5-min Rain = 0
KAI1 200607Z 14007KT 22/19 A2987 RMK A01 T02150187  RH  084%=      5-min Rain = 0
KAI1 200608Z 15007KT 22/19 A2987 RMK A01 T02160187  RH  084%=      5-min Rain = 0
KAI1 200609Z 15007KT 22/19 A2987 RMK A01 T02150187  RH  084%=      5-min Rain = 0
KAI1 200610Z 15007KT 22/19 A2987 RMK A01 T02150187  RH  084%=      5-min Rain = 0
KAI1 200611Z 15008KT 22/19 A2987 RMK A01 T02160187  RH  084%=      5-min Rain = 0
KAI1 200612Z 15008KT 22/19 A2987 RMK A01 T02150187  RH  084%=      5-min Rain = 0
KAI1 200613Z 15008KT 22/19 A2987 RMK A01 T02160187  RH  084%=      5-min Rain = 0
KAI1 200614Z 15008KT 22/19 A2987 RMK A01 T02160187  RH  084%=      5-min Rain = 0
KAI1 200615Z 15008KT 22/19 A2987 RMK A01 T02160187  RH  084%=      5-min Rain = 0
KAI1 200616Z 15008KT 22/19 A2987 RMK A01 T02160186  RH  083%=      5-min Rain = 0
KAI1 200617Z 15008KT 22/19 A2987 RMK A01 T02150186  RH  083%=      5-min Rain = 0
KAI1 200618Z 15008KT 22/19 A2987 RMK A01 T02160186  RH  083%=      5-min Rain = 0
KAI1 200619Z 15008KT 22/19 A2987 RMK A01 T02160186  RH  083%=      5-min Rain = 0
KAI1 200620Z 15008KT 22/19 A2987 RMK A01 T02160186  RH  083%=      5-min Rain = 0
KAI1 200621Z 14009KT 22/19 A2987 RMK A01 T02160185  RH  082%=      5-min Rain = 0
KAI1 200622Z 14008KT 22/19 A2987 RMK A01 T02170185  RH  082%=      5-min Rain = 0
KAI1 200623Z 14008KT 22/19 A2987 RMK A01 T02180185  RH  082%=      5-min Rain = 0
KAI1 200624Z 14008KT 22/19 A2987 RMK A01 T02180185  RH  082%=      5-min Rain = 0
KAI1 200625Z 13007KT 22/19 A2987 RMK A01 T02180185  RH  082%=      5-min Rain = 0
KAI1 200626Z 13008KT 22/19 A2987 RMK A01 T02170185  RH  082%=      5-min Rain = 0
KAI1 200627Z 13008KT 22/19 A2987 RMK A01 T02170185  RH  082%=      5-min Rain = 0
KAI1 200628Z 13008KT 22/19 A2987 RMK A01 T02180185  RH  082%=      5-min Rain = 0
KAI1 200629Z 13008KT 22/19 A2987 RMK A01 T02170185  RH  082%=      5-min Rain = 0
KAI1 200630Z 13008KT 22/19 A2987 RMK A01 T02170185  RH  082%=      5-min Rain = 0
KAI1 200631Z 13008KT 22/19 A2987 RMK A01 T02170185  RH  082%=      5-min Rain = 0
KAI1 200632Z 13007KT 22/19 A2987 RMK A01 T02160185  RH  082%=      5-min Rain = 0
KAI1 200633Z 14007KT 22/19 A2987 RMK A01 T02160185  RH  082%=      5-min Rain = 0
KAI1 200634Z 13008KT 22/19 A2987 RMK A01 T02160185  RH  082%=      5-min Rain = 0
KAI1 200635Z 14008KT 22/19 A2987 RMK A01 T02160185  RH  083%=      5-min Rain = 0
KAI1 200636Z 14007KT 22/19 A2987 RMK A01 T02160185  RH  083%=      5-min Rain = 0
KAI1 200637Z 14007KT 22/18 A2987 RMK A01 T02150184  RH  082%=      5-min Rain = 0
KAI1 200638Z 14008KT 22/18 A2987 RMK A01 T02160184  RH  082%=      5-min Rain = 0
KAI1 200639Z 14007KT 22/18 A2987 RMK A01 T02160184  RH  082%=      5-min Rain = 0
KAI1 200640Z 14007KT 22/18 A2987 RMK A01 T02150183  RH  082%=      5-min Rain = 0
KAI1 200641Z 14006KT 22/18 A2987 RMK A01 T02160183  RH  082%=      5-min Rain = 0
KAI1 200642Z 14007KT 22/18 A2987 RMK A01 T02160183  RH  082%=      5-min Rain = 0
KAI1 200643Z 15007KT 22/18 A2987 RMK A01 T02150183  RH  082%=      5-min Rain = 0
KAI1 200644Z 14008KT 22/18 A2987 RMK A01 T02160183  RH  082%=      5-min Rain = 0
KAI1 200645Z 14008KT 22/18 A2986 RMK A01 T02160183  RH  082%=      5-min Rain = 0
KAI1 200646Z 14007KT 22/18 A2986 RMK A01 T02160183  RH  081%=      5-min Rain = 0
KAI1 200647Z 14008KT 22/18 A2986 RMK A01 T02160183  RH  081%=      5-min Rain = 0
KAI1 200648Z 14008KT 22/18 A2986 RMK A01 T02160183  RH  081%=      5-min Rain = 0
KAI1 200649Z 14007KT 22/18 A2986 RMK A01 T02160183  RH  081%=      5-min Rain = 0
KAI1 200650Z 14007KT 22/18 A2987 RMK A01 T02160183  RH  081%=      5-min Rain = 0
KAI1 200651Z 14008KT 22/18 A2987 RMK A01 T02160183  RH  082%=      5-min Rain = 0
KAI1 200652Z 14007KT 22/18 A2987 RMK A01 T02150183  RH  082%=      5-min Rain = 0
KAI1 200653Z 14007KT 22/18 A2987 RMK A01 T02150183  RH  082%=      5-min Rain = 0
KAI1 200654Z 14007KT 22/18 A2987 RMK A01 T02150183  RH  082%=      5-min Rain = 0
KAI1 200655Z 14007KT 21/18 A2987 RMK A01 T02140183  RH  083%=      5-min Rain = 0
KAI1 200656Z 15007KT 21/18 A2987 RMK A01 T02130182  RH  083%=      5-min Rain = 0
KAI1 200657Z 15007KT 21/18 A2987 RMK A01 T02130183  RH  083%=      5-min Rain = 0
KAI1 200658Z 14007KT 21/18 A2987 RMK A01 T02130183  RH  083%=      5-min Rain = 0
KAI1 200659Z 14007KT 21/18 A2987 RMK A01 T02130183  RH  083%=      5-min Rain = 0
KAI1 200700Z 14007KT 21/18 A2987 RMK A01 T02130182  RH  083%=      5-min Rain = 0
KAI1 200701Z 13007KT 21/18 A2987 RMK A01 T02130182  RH  083%=      5-min Rain = 0
KAI1 200702Z 13007KT 21/18 A2987 RMK A01 T02130182  RH  083%=      5-min Rain = 0
KAI1 200703Z 14008KT 21/18 A2987 RMK A01 T02130182  RH  083%=      5-min Rain = 0
KAI1 200704Z 13008KT 21/18 A2987 RMK A01 T02130182  RH  083%=      5-min Rain = 0
KAI1 200705Z 13008KT 21/18 A2987 RMK A01 T02120182  RH  083%=      5-min Rain = 0
KAI1 200706Z 14009KT 21/18 A2987 RMK A01 T02120182  RH  083%=      5-min Rain = 0
KAI1 200707Z 14009KT 21/18 A2987 RMK A01 T02120182  RH  083%=      5-min Rain = 0
KAI1 200708Z 14009KT 21/18 A2987 RMK A01 T02120182  RH  083%=      5-min Rain = 0
KAI1 200709Z 14009KT 21/18 A2987 RMK A01 T02120182  RH  083%=      5-min Rain = 0
KAI1 200710Z 14008KT 21/18 A2987 RMK A01 T02120182  RH  083%=      5-min Rain = 0
KAI1 200711Z 14009KT 21/18 A2987 RMK A01 T02120182  RH  083%=      5-min Rain = 0
KAI1 200712Z 14008KT 21/18 A2987 RMK A01 T02120182  RH  083%=      5-min Rain = 0
KAI1 200713Z 14009KT 21/18 A2987 RMK A01 T02120182  RH  083%=      5-min Rain = 0
KAI1 200714Z 14009KT 21/18 A2987 RMK A01 T02120182  RH  083%=      5-min Rain = 0
KAI1 200715Z 14009KT 21/18 A2987 RMK A01 T02120182  RH  083%=      5-min Rain = 0
KAI1 200716Z 14009KT 21/18 A2987 RMK A01 T02120182  RH  083%=      5-min Rain = 0
KAI1 200717Z 14009KT 21/18 A2986 RMK A01 T02120182  RH  083%=      5-min Rain = 0
KAI1 200718Z 14010KT 21/18 A2986 RMK A01 T02110182  RH  083%=      5-min Rain = 0
KAI1 200719Z 15010KT 21/18 A2986 RMK A01 T02120182  RH  083%=      5-min Rain = 0
KAI1 200720Z 14010KT 21/18 A2986 RMK A01 T02110182  RH  083%=      5-min Rain = 0
KAI1 200721Z 14009KT 21/18 A2986 RMK A01 T02110182  RH  083%=      5-min Rain = 0
KAI1 200722Z 14009KT 21/18 A2986 RMK A01 T02110182  RH  083%=      5-min Rain = 0
KAI1 200723Z 14008KT 21/18 A2986 RMK A01 T02110182  RH  083%=      5-min Rain = 0
KAI1 200724Z 14009KT 21/18 A2986 RMK A01 T02120182  RH  083%=      5-min Rain = 0
KAI1 200725Z 14009KT 21/18 A2986 RMK A01 T02110182  RH  083%=      5-min Rain = 0
KAI1 200726Z 15009KT 21/18 A2986 RMK A01 T02110182  RH  083%=      5-min Rain = 0
KAI1 200727Z 14010KT 21/18 A2986 RMK A01 T02110182  RH  084%=      5-min Rain = 0
KAI1 200728Z 15010KT 21/18 A2986 RMK A01 T02110182  RH  084%=      5-min Rain = 0
KAI1 200729Z 15010KT 21/18 A2986 RMK A01 T02110182  RH  084%=      5-min Rain = 0
KAI1 200730Z 15010KT 21/18 A2986 RMK A01 T02110182  RH  084%=      5-min Rain = 0
KAI1 200731Z 15009KT 21/18 A2986 RMK A01 T02110182  RH  083%=      5-min Rain = 0
KAI1 200732Z 15009KT 21/18 A2986 RMK A01 T02120182  RH  083%=      5-min Rain = 0
KAI1 200733Z 15010KT 21/18 A2986 RMK A01 T02110182  RH  084%=      5-min Rain = 0
KAI1 200734Z 15009KT 21/18 A2986 RMK A01 T02110183  RH  084%=      5-min Rain = 0
KAI1 200735Z 15009KT 21/18 A2986 RMK A01 T02110183  RH  084%=      5-min Rain = 0
KAI1 200736Z 15009KT 21/18 A2986 RMK A01 T02110183  RH  084%=      5-min Rain = 0
KAI1 200737Z 15009KT 21/18 A2986 RMK A01 T02100183  RH  084%=      5-min Rain = 0
KAI1 200738Z 15009KT 21/18 A2986 RMK A01 T02100183  RH  084%=      5-min Rain = 0
KAI1 200739Z 15008KT 21/18 A2986 RMK A01 T02100183  RH  084%=      5-min Rain = 0
KAI1 200740Z 15009KT 21/18 A2986 RMK A01 T02100183  RH  084%=      5-min Rain = 0
KAI1 200741Z 15009KT 21/18 A2986 RMK A01 T02100183  RH  085%=      5-min Rain = 0
KAI1 200742Z 15009KT 21/18 A2986 RMK A01 T02100183  RH  085%=      5-min Rain = 0
KAI1 200743Z 15009KT 21/18 A2986 RMK A01 T02090183  RH  085%=      5-min Rain = 0
KAI1 200744Z 15008KT 21/18 A2986 RMK A01 T02090183  RH  085%=      5-min Rain = 0
KAI1 200745Z 15009KT 21/18 A2986 RMK A01 T02090183  RH  085%=      5-min Rain = 0
KAI1 200746Z 16009KT 21/18 A2986 RMK A01 T02080183  RH  085%=      5-min Rain = 0
KAI1 200747Z 16009KT 21/18 A2986 RMK A01 T02080183  RH  086%=      5-min Rain = 0
KAI1 200748Z 16009KT 21/18 A2986 RMK A01 T02080183  RH  086%=      5-min Rain = 0
KAI1 200749Z 16009KT 21/18 A2986 RMK A01 T02080183  RH  086%=      5-min Rain = 0
KAI1 200750Z 16009KT 21/18 A2986 RMK A01 T02080184  RH  086%=      5-min Rain = 0
KAI1 200751Z 16009KT 21/18 A2986 RMK A01 T02080184  RH  086%=      5-min Rain = 0
KAI1 200752Z 16009KT 21/18 A2986 RMK A01 T02070184  RH  086%=      5-min Rain = 0
KAI1 200753Z 16008KT 21/18 A2986 RMK A01 T02070184  RH  086%=      5-min Rain = 0
KAI1 200754Z 16008KT 21/18 A2986 RMK A01 T02070184  RH  087%=      5-min Rain = 0
KAI1 200755Z 16009KT 21/18 A2986 RMK A01 T02070184  RH  087%=      5-min Rain = 0
KAI1 200756Z 16008KT 21/18 A2986 RMK A01 T02070184  RH  087%=      5-min Rain = 0
KAI1 200757Z 16008KT 21/18 A2986 RMK A01 T02060183  RH  087%=      5-min Rain = 0
KAI1 200758Z 16008KT 21/18 A2986 RMK A01 T02060184  RH  087%=      5-min Rain = 0
KAI1 200759Z 16008KT 21/18 A2986 RMK A01 T02060183  RH  087%=      5-min Rain = 0
KAI1 200800Z 16008KT 21/18 A2986 RMK A01 T02060184  RH  087%=      5-min Rain = 0
KAI1 200801Z 16008KT 21/18 A2986 RMK A01 T02050184  RH  087%=      5-min Rain = 0
KAI1 200802Z 16008KT 21/18 A2986 RMK A01 T02050184  RH  087%=      5-min Rain = 0
KAI1 200803Z 16008KT 21/18 A2986 RMK A01 T02050184  RH  088%=      5-min Rain = 0
KAI1 200804Z 16008KT 21/18 A2986 RMK A01 T02050184  RH  088%=      5-min Rain = 0
KAI1 200805Z 16008KT 21/18 A2986 RMK A01 T02050184  RH  088%=      5-min Rain = 0
KAI1 200806Z 16008KT 21/18 A2986 RMK A01 T02050184  RH  088%=      5-min Rain = 0
KAI1 200807Z 16008KT 20/18 A2986 RMK A01 T02040184  RH  088%=      5-min Rain = 0
KAI1 200808Z 16008KT 20/18 A2986 RMK A01 T02040184  RH  088%=      5-min Rain = 0
KAI1 200809Z 16008KT 20/18 A2986 RMK A01 T02040184  RH  088%=      5-min Rain = 0
KAI1 200810Z 16008KT 20/18 A2986 RMK A01 T02040184  RH  088%=      5-min Rain = 0
KAI1 200811Z 16008KT 20/18 A2986 RMK A01 T02040184  RH  088%=      5-min Rain = 0
KAI1 200812Z 16007KT 20/18 A2986 RMK A01 T02030184  RH  089%=      5-min Rain = 0
KAI1 200813Z 16007KT 20/18 A2986 RMK A01 T02030184  RH  089%=      5-min Rain = 0
KAI1 200814Z 16007KT 20/18 A2986 RMK A01 T02030184  RH  089%=      5-min Rain = 0
KAI1 200815Z 16007KT 20/18 A2986 RMK A01 T02030184  RH  089%=      5-min Rain = 0
KAI1 200816Z 16007KT 20/18 A2986 RMK A01 T02020184  RH  089%=      5-min Rain = 0
KAI1 200817Z 16007KT 20/18 A2985 RMK A01 T02020184  RH  089%=      5-min Rain = 0
KAI1 200818Z 16007KT 20/18 A2986 RMK A01 T02020184  RH  089%=      5-min Rain = 0
KAI1 200819Z 16007KT 20/18 A2986 RMK A01 T02020184  RH  089%=      5-min Rain = 0
KAI1 200820Z 16007KT 20/18 A2986 RMK A01 T02010184  RH  090%=      5-min Rain = 0
KAI1 200821Z 16007KT 20/18 A2986 RMK A01 T02010184  RH  090%=      5-min Rain = 0
KAI1 200822Z 16007KT 20/18 A2986 RMK A01 T02010184  RH  090%=      5-min Rain = 0
KAI1 200823Z 16006KT 20/18 A2986 RMK A01 T02010183  RH  090%=      5-min Rain = 0
KAI1 200824Z 16007KT 20/18 A2986 RMK A01 T02010184  RH  090%=      5-min Rain = 0
KAI1 200825Z 16007KT 20/18 A2986 RMK A01 T02010184  RH  090%=      5-min Rain = 0
KAI1 200826Z 16007KT 20/18 A2986 RMK A01 T02000184  RH  090%=      5-min Rain = 0
KAI1 200827Z 15007KT 20/18 A2986 RMK A01 T02010184  RH  090%=      5-min Rain = 0
KAI1 200828Z 15007KT 20/18 A2986 RMK A01 T02010184  RH  090%=      5-min Rain = 0
KAI1 200829Z 15006KT 20/18 A2986 RMK A01 T02000183  RH  090%=      5-min Rain = 0
KAI1 200830Z 16006KT 20/18 A2986 RMK A01 T02000183  RH  090%=      5-min Rain = 0
KAI1 200831Z 15006KT 20/18 A2986 RMK A01 T02000184  RH  090%=      5-min Rain = 0
KAI1 200832Z 15006KT 20/18 A2986 RMK A01 T02000183  RH  090%=      5-min Rain = 0
KAI1 200833Z 15006KT 20/18 A2985 RMK A01 T01990183  RH  090%=      5-min Rain = 0
KAI1 200834Z 15006KT 20/18 A2985 RMK A01 T01990183  RH  090%=      5-min Rain = 0
KAI1 200835Z 15006KT 20/18 A2985 RMK A01 T01990183  RH  090%=      5-min Rain = 0
KAI1 200836Z 15006KT 20/18 A2985 RMK A01 T01990183  RH  090%=      5-min Rain = 0
KAI1 200837Z 15006KT 20/18 A2985 RMK A01 T01990183  RH  090%=      5-min Rain = 0
KAI1 200838Z 15006KT 20/18 A2985 RMK A01 T02000183  RH  090%=      5-min Rain = 0
KAI1 200839Z 15006KT 20/18 A2985 RMK A01 T01990183  RH  090%=      5-min Rain = 0
KAI1 200840Z 15006KT 20/18 A2985 RMK A01 T02000183  RH  090%=      5-min Rain = 0
KAI1 200841Z 15006KT 20/18 A2985 RMK A01 T01990183  RH  090%=      5-min Rain = 0
KAI1 200842Z 15006KT 20/18 A2985 RMK A01 T01990183  RH  091%=      5-min Rain = 0
KAI1 200843Z 14006KT 20/18 A2985 RMK A01 T01990183  RH  090%=      5-min Rain = 0
KAI1 200844Z 14006KT 20/18 A2985 RMK A01 T01990183  RH  090%=      5-min Rain = 0
KAI1 200845Z 14006KT 20/18 A2985 RMK A01 T01990183  RH  091%=      5-min Rain = 0
KAI1 200846Z 14006KT 20/18 A2985 RMK A01 T01980182  RH  091%=      5-min Rain = 0
KAI1 200847Z 14006KT 20/18 A2985 RMK A01 T01980182  RH  091%=      5-min Rain = 0
KAI1 200848Z 14006KT 20/18 A2985 RMK A01 T01980182  RH  091%=      5-min Rain = 0
KAI1 200849Z 14006KT 20/18 A2985 RMK A01 T01980182  RH  091%=      5-min Rain = 0
KAI1 200850Z 14006KT 20/18 A2985 RMK A01 T01970182  RH  091%=      5-min Rain = 0
KAI1 200851Z 13006KT 20/18 A2985 RMK A01 T01970182  RH  091%=      5-min Rain = 0
KAI1 200852Z 14006KT 20/18 A2985 RMK A01 T01960181  RH  091%=      5-min Rain = 0
KAI1 200853Z 14007KT 20/18 A2985 RMK A01 T01960181  RH  091%=      5-min Rain = 0
KAI1 200854Z 13007KT 20/18 A2985 RMK A01 T01970182  RH  091%=      5-min Rain = 0
KAI1 200855Z 14007KT 20/18 A2985 RMK A01 T01960181  RH  091%=      5-min Rain = 0
KAI1 200856Z 13006KT 20/18 A2985 RMK A01 T01960182  RH  091%=      5-min Rain = 0
KAI1 200857Z 13007KT 20/18 A2985 RMK A01 T01960182  RH  091%=      5-min Rain = 0
KAI1 200858Z 14007KT 20/18 A2985 RMK A01 T01960182  RH  092%=      5-min Rain = 0
KAI1 200859Z 14006KT 20/18 A2985 RMK A01 T01960182  RH  092%=      5-min Rain = 0
KAI1 200900Z 14006KT 20/18 A2985 RMK A01 T01950182  RH  092%=      5-min Rain = 0
KAI1 200901Z 14006KT 20/18 A2985 RMK A01 T01950182  RH  092%=      5-min Rain = 0
KAI1 200902Z 14006KT 20/18 A2985 RMK A01 T01950182  RH  092%=      5-min Rain = 0
KAI1 200903Z 13006KT 20/18 A2985 RMK A01 T01950182  RH  092%=      5-min Rain = 0
KAI1 200904Z 13006KT 20/18 A2985 RMK A01 T01950182  RH  092%=      5-min Rain = 0
KAI1 200905Z 13006KT 20/18 A2985 RMK A01 T01950182  RH  092%=      5-min Rain = 0
KAI1 200906Z 13006KT 20/18 A2985 RMK A01 T01950183  RH  092%=      5-min Rain = 0
KAI1 200907Z 13006KT 20/18 A2985 RMK A01 T01950183  RH  093%=      5-min Rain = 0
KAI1 200908Z 13007KT 20/18 A2985 RMK A01 T01950183  RH  093%=      5-min Rain = 0
KAI1 200909Z 13007KT 20/18 A2985 RMK A01 T01950182  RH  093%=      5-min Rain = 0
KAI1 200910Z 13007KT 20/18 A2985 RMK A01 T01950183  RH  093%=      5-min Rain = 0
KAI1 200911Z 13007KT 20/18 A2985 RMK A01 T01950183  RH  093%=      5-min Rain = 0
KAI1 200912Z 13007KT 20/18 A2985 RMK A01 T01950182  RH  093%=      5-min Rain = 0
KAI1 200913Z 13007KT 19/18 A2985 RMK A01 T01940182  RH  093%=      5-min Rain = 0
KAI1 200914Z 13008KT 20/18 A2985 RMK A01 T01950183  RH  093%=      5-min Rain = 0
KAI1 200915Z 13008KT 20/18 A2985 RMK A01 T01950183  RH  093%=      5-min Rain = 0
KAI1 200916Z 13008KT 19/18 A2985 RMK A01 T01940183  RH  093%=      5-min Rain = 0
KAI1 200917Z 12007KT 19/18 A2985 RMK A01 T01940182  RH  093%=      5-min Rain = 0
KAI1 200918Z 13007KT 19/18 A2985 RMK A01 T01940182  RH  093%=      5-min Rain = 0
KAI1 200919Z 13007KT 19/18 A2985 RMK A01 T01940182  RH  093%=      5-min Rain = 0
KAI1 200920Z 13007KT 19/18 A2985 RMK A01 T01940182  RH  093%=      5-min Rain = 0
KAI1 200921Z 13007KT 20/18 A2985 RMK A01 T01950183  RH  093%=      5-min Rain = 0
KAI1 200922Z 13008KT 19/18 A2985 RMK A01 T01940182  RH  093%=      5-min Rain = 0
KAI1 200923Z 13008KT 20/18 A2985 RMK A01 T01950183  RH  093%=      5-min Rain = 0
KAI1 200924Z 13009KT 20/18 A2984 RMK A01 T01950183  RH  093%=      5-min Rain = 0
KAI1 200925Z 13009KT 19/18 A2984 RMK A01 T01940182  RH  093%=      5-min Rain = 0
KAI1 200926Z 13009KT 19/18 A2984 RMK A01 T01940182  RH  093%=      5-min Rain = 0
KAI1 200927Z 13009KT 20/18 A2984 RMK A01 T01950183  RH  093%=      5-min Rain = 0
KAI1 200928Z 13009KT 20/18 A2984 RMK A01 T01950182  RH  093%=      5-min Rain = 0
KAI1 200929Z 13008KT 20/18 A2984 RMK A01 T01950183  RH  092%=      5-min Rain = 0
KAI1 200930Z 13008KT 20/18 A2984 RMK A01 T01960182  RH  092%=      5-min Rain = 0
KAI1 200931Z 14008KT 20/18 A2984 RMK A01 T01960183  RH  092%=      5-min Rain = 0
KAI1 200932Z 14008KT 20/18 A2984 RMK A01 T01970183  RH  092%=      5-min Rain = 0
KAI1 200933Z 14009KT 20/18 A2984 RMK A01 T01970183  RH  091%=      5-min Rain = 0
KAI1 200934Z 14009KT 20/18 A2984 RMK A01 T01980183  RH  091%=      5-min Rain = 0
KAI1 200935Z 13009KT 20/18 A2984 RMK A01 T01970183  RH  091%=      5-min Rain = 0
KAI1 200936Z 13009KT 20/18 A2984 RMK A01 T01970183  RH  091%=      5-min Rain = 0
KAI1 200937Z 13008KT 20/18 A2984 RMK A01 T01970183  RH  091%=      5-min Rain = 0
KAI1 200938Z 13008KT 20/18 A2984 RMK A01 T01960183  RH  092%=      5-min Rain = 0
KAI1 200939Z 13009KT 20/18 A2984 RMK A01 T01960182  RH  092%=      5-min Rain = 0
KAI1 200940Z 14009KT 20/18 A2984 RMK A01 T01950182  RH  092%=      5-min Rain = 0
KAI1 200941Z 14008KT 20/18 A2984 RMK A01 T01950182  RH  092%=      5-min Rain = 0
KAI1 200942Z 13008KT 20/18 A2984 RMK A01 T01960182  RH  092%=      5-min Rain = 0
KAI1 200943Z 13008KT 20/18 A2984 RMK A01 T01950182  RH  092%=      5-min Rain = 0
KAI1 200944Z 13008KT 20/18 A2984 RMK A01 T01950182  RH  092%=      5-min Rain = 0
KAI1 200945Z 14007KT 20/18 A2984 RMK A01 T01950182  RH  092%=      5-min Rain = 0
KAI1 200946Z 13008KT 20/18 A2984 RMK A01 T01950181  RH  092%=      5-min Rain = 0
KAI1 200947Z 13008KT 20/18 A2984 RMK A01 T01950182  RH  092%=      5-min Rain = 0
KAI1 200948Z 13008KT 20/18 A2984 RMK A01 T01950181  RH  092%=      5-min Rain = 0
KAI1 200949Z 13008KT 19/18 A2984 RMK A01 T01940181  RH  092%=      5-min Rain = 0
KAI1 200950Z 13007KT 19/18 A2984 RMK A01 T01940181  RH  092%=      5-min Rain = 0
KAI1 200951Z 13008KT 19/18 A2984 RMK A01 T01940182  RH  093%=      5-min Rain = 0
KAI1 200952Z 13007KT 19/18 A2984 RMK A01 T01940182  RH  093%=      5-min Rain = 0
KAI1 200953Z 13008KT 19/18 A2984 RMK A01 T01940182  RH  093%=      5-min Rain = 0
KAI1 200954Z 13007KT 19/18 A2984 RMK A01 T01940182  RH  093%=      5-min Rain = 0
KAI1 200955Z 13007KT 19/18 A2984 RMK A01 T01940182  RH  093%=      5-min Rain = 0
KAI1 200956Z 13007KT 19/18 A2984 RMK A01 T01940182  RH  093%=      5-min Rain = 0
KAI1 200957Z 14007KT 19/18 A2984 RMK A01 T01940182  RH  093%=      5-min Rain = 0
KAI1 200958Z 14007KT 19/18 A2984 RMK A01 T01940182  RH  093%=      5-min Rain = 0
KAI1 200959Z 13007KT 19/18 A2984 RMK A01 T01940182  RH  093%=      5-min Rain = 0
KAI1 201000Z 13007KT 19/18 A2984 RMK A01 T01930182  RH  093%=      5-min Rain = 0
KAI1 201001Z 13007KT 19/18 A2984 RMK A01 T01930181  RH  093%=      5-min Rain = 0
KAI1 201002Z 13007KT 19/18 A2984 RMK A01 T01930181  RH  093%=      5-min Rain = 0
KAI1 201003Z 13007KT 19/18 A2984 RMK A01 T01930182  RH  093%=      5-min Rain = 0
KAI1 201004Z 13007KT 19/18 A2984 RMK A01 T01930181  RH  093%=      5-min Rain = 0
KAI1 201005Z 13007KT 19/18 A2984 RMK A01 T01930181  RH  093%=      5-min Rain = 0
KAI1 201006Z 13007KT 19/18 A2984 RMK A01 T01930181  RH  093%=      5-min Rain = 0
KAI1 201007Z 13006KT 19/18 A2984 RMK A01 T01930181  RH  093%=      5-min Rain = 0
KAI1 201008Z 13007KT 19/18 A2983 RMK A01 T01930181  RH  093%=      5-min Rain = 0
KAI1 201009Z 13007KT 19/18 A2983 RMK A01 T01920181  RH  093%=      5-min Rain = 0
KAI1 201010Z 13007KT 19/18 A2983 RMK A01 T01920181  RH  093%=      5-min Rain = 0
KAI1 201011Z 13007KT 19/18 A2983 RMK A01 T01920180  RH  093%=      5-min Rain = 0
KAI1 201012Z 13007KT 19/18 A2983 RMK A01 T01920181  RH  093%=      5-min Rain = 0
KAI1 201013Z 13007KT 19/18 A2983 RMK A01 T01920181  RH  093%=      5-min Rain = 0
KAI1 201014Z 13006KT 19/18 A2983 RMK A01 T01910180  RH  093%=      5-min Rain = 0
KAI1 201015Z 13006KT 19/18 A2983 RMK A01 T01910180  RH  093%=      5-min Rain = 0
KAI1 201016Z 13006KT 19/18 A2983 RMK A01 T01910180  RH  093%=      5-min Rain = 0
KAI1 201017Z 13005KT 19/18 A2983 RMK A01 T01900180  RH  094%=      5-min Rain = 0
KAI1 201018Z 13005KT 19/18 A2983 RMK A01 T01900180  RH  094%=      5-min Rain = 0
KAI1 201019Z 13006KT 19/18 A2983 RMK A01 T01900180  RH  094%=      5-min Rain = 0
KAI1 201020Z 14005KT 19/18 A2983 RMK A01 T01900180  RH  094%=      5-min Rain = 0
KAI1 201021Z 13005KT 19/18 A2983 RMK A01 T01900180  RH  094%=      5-min Rain = 0
KAI1 201022Z 14005KT 19/18 A2983 RMK A01 T01900180  RH  094%=      5-min Rain = 0
KAI1 201023Z 14005KT 19/18 A2984 RMK A01 T01900180  RH  094%=      5-min Rain = 0
KAI1 201024Z 14005KT 19/18 A2984 RMK A01 T01900180  RH  094%=      5-min Rain = 0
KAI1 201025Z 13005KT 19/18 A2984 RMK A01 T01900180  RH  094%=      5-min Rain = 0
KAI1 201026Z 14004KT 19/18 A2984 RMK A01 T01900180  RH  094%=      5-min Rain = 0
KAI1 201027Z 14004KT 19/18 A2984 RMK A01 T01890179  RH  094%=      5-min Rain = 0
KAI1 201028Z 14004KT 19/18 A2984 RMK A01 T01890179  RH  094%=      5-min Rain = 0
KAI1 201029Z 14004KT 19/18 A2984 RMK A01 T01890179  RH  094%=      5-min Rain = 0
KAI1 201030Z 14004KT 19/18 A2984 RMK A01 T01890179  RH  094%=      5-min Rain = 0
KAI1 201031Z 14004KT 19/18 A2984 RMK A01 T01880179  RH  094%=      5-min Rain = 0
KAI1 201032Z 14004KT 19/18 A2984 RMK A01 T01880178  RH  094%=      5-min Rain = 0
KAI1 201033Z 14004KT 19/18 A2984 RMK A01 T01880178  RH  094%=      5-min Rain = 0
KAI1 201034Z 14004KT 19/18 A2984 RMK A01 T01870178  RH  094%=      5-min Rain = 0
KAI1 201035Z 14004KT 19/18 A2984 RMK A01 T01870178  RH  094%=      5-min Rain = 0
KAI1 201036Z 14004KT 19/18 A2984 RMK A01 T01870178  RH  094%=      5-min Rain = 0
KAI1 201037Z 14004KT 19/18 A2983 RMK A01 T01870177  RH  094%=      5-min Rain = 0
KAI1 201038Z 14004KT 19/18 A2983 RMK A01 T01870178  RH  095%=      5-min Rain = 0
KAI1 201039Z 14004KT 19/18 A2983 RMK A01 T01860178  RH  095%=      5-min Rain = 0
KAI1 201040Z 14004KT 19/18 A2983 RMK A01 T01860178  RH  095%=      5-min Rain = 0
KAI1 201041Z 14004KT 19/18 A2983 RMK A01 T01860179  RH  095%=      5-min Rain = 0
KAI1 201042Z 14004KT 19/18 A2983 RMK A01 T01860179  RH  095%=      5-min Rain = 0
KAI1 201043Z 14004KT 19/18 A2983 RMK A01 T01860178  RH  095%=      5-min Rain = 0
KAI1 201044Z 15004KT 19/18 A2983 RMK A01 T01860178  RH  095%=      5-min Rain = 0
KAI1 201045Z 15004KT 19/18 A2983 RMK A01 T01860178  RH  095%=      5-min Rain = 0
KAI1 201046Z 15004KT 19/18 A2983 RMK A01 T01850177  RH  095%=      5-min Rain = 0
KAI1 201047Z 14004KT 19/18 A2983 RMK A01 T01850177  RH  095%=      5-min Rain = 0
KAI1 201048Z 14004KT 19/18 A2983 RMK A01 T01850178  RH  096%=      5-min Rain = 0
KAI1 201049Z 14004KT 19/18 A2983 RMK A01 T01850178  RH  096%=      5-min Rain = 0
KAI1 201050Z 15004KT 19/18 A2983 RMK A01 T01850178  RH  096%=      5-min Rain = 0
KAI1 201051Z 15004KT 18/18 A2983 RMK A01 T01840177  RH  096%=      5-min Rain = 0
KAI1 201052Z 15004KT 18/18 A2983 RMK A01 T01840177  RH  096%=      5-min Rain = 0
KAI1 201053Z 14004KT 18/18 A2983 RMK A01 T01840177  RH  096%=      5-min Rain = 0
KAI1 201054Z 14004KT 18/18 A2983 RMK A01 T01840177  RH  096%=      5-min Rain = 0
KAI1 201055Z 14004KT 18/18 A2983 RMK A01 T01840177  RH  096%=      5-min Rain = 0
KAI1 201056Z 14004KT 18/18 A2983 RMK A01 T01830177  RH  096%=      5-min Rain = 0
KAI1 201057Z 14004KT 18/18 A2983 RMK A01 T01830177  RH  096%=      5-min Rain = 0
KAI1 201058Z 14004KT 18/18 A2983 RMK A01 T01840177  RH  096%=      5-min Rain = 0
KAI1 201059Z 14004KT 18/18 A2983 RMK A01 T01830176  RH  096%=      5-min Rain = 0
KAI1 201100Z 13004KT 18/18 A2983 RMK A01 T01830177  RH  096%=      5-min Rain = 0
KAI1 201101Z 13004KT 18/18 A2983 RMK A01 T01830176  RH  096%=      5-min Rain = 0
KAI1 201102Z 13004KT 18/18 A2983 RMK A01 T01830176  RH  096%=      5-min Rain = 0
KAI1 201103Z 13004KT 18/18 A2983 RMK A01 T01820175  RH  096%=      5-min Rain = 0
KAI1 201104Z 13004KT 18/18 A2983 RMK A01 T01820175  RH  096%=      5-min Rain = 0
KAI1 201105Z 13003KT 18/18 A2983 RMK A01 T01820175  RH  096%=      5-min Rain = 0
KAI1 201106Z 13003KT 18/17 A2983 RMK A01 T01810174  RH  096%=      5-min Rain = 0
KAI1 201107Z 13003KT 18/17 A2983 RMK A01 T01800173  RH  095%=      5-min Rain = 0
KAI1 201108Z 13003KT 18/17 A2983 RMK A01 T01790171  RH  095%=      5-min Rain = 0
KAI1 201109Z 12003KT 18/17 A2983 RMK A01 T01790171  RH  095%=      5-min Rain = 0
KAI1 201110Z 12003KT 18/17 A2983 RMK A01 T01780171  RH  096%=      5-min Rain = 0
KAI1 201111Z 12003KT 18/17 A2983 RMK A01 T01780172  RH  096%=      5-min Rain = 0
KAI1 201112Z 13003KT 18/17 A2984 RMK A01 T01780173  RH  096%=      5-min Rain = 0
KAI1 201113Z 13003KT 18/17 A2984 RMK A01 T01780173  RH  096%=      5-min Rain = 0
KAI1 201114Z 14004KT 18/17 A2984 RMK A01 T01780173  RH  097%=      5-min Rain = 0
KAI1 201115Z 14004KT 18/17 A2984 RMK A01 T01780173  RH  097%=      5-min Rain = 0
KAI1 201116Z 14005KT 18/17 A2984 RMK A01 T01780173  RH  097%=      5-min Rain = 0
KAI1 201117Z 14005KT 18/17 A2984 RMK A01 T01780173  RH  097%=      5-min Rain = 0
KAI1 201118Z 14005KT 18/17 A2984 RMK A01 T01780173  RH  097%=      5-min Rain = 0
KAI1 201119Z 14005KT 18/17 A2984 RMK A01 T01770172  RH  097%=      5-min Rain = 0
KAI1 201120Z 14005KT 18/17 A2984 RMK A01 T01770172  RH  097%=      5-min Rain = 0
KAI1 201121Z 14005KT 18/17 A2984 RMK A01 T01770172  RH  097%=      5-min Rain = 0
KAI1 201122Z 14005KT 18/17 A2984 RMK A01 T01770172  RH  096%=      5-min Rain = 0
KAI1 201123Z 14005KT 18/17 A2984 RMK A01 T01770171  RH  096%=      5-min Rain = 0
KAI1 201124Z 15005KT 18/17 A2984 RMK A01 T01770171  RH  096%=      5-min Rain = 0
KAI1 201125Z 15005KT 18/17 A2984 RMK A01 T01770171  RH  096%=      5-min Rain = 0
KAI1 201126Z 15005KT 18/17 A2984 RMK A01 T01770171  RH  096%=      5-min Rain = 0
KAI1 201127Z 15005KT 18/17 A2984 RMK A01 T01770171  RH  096%=      5-min Rain = 0
KAI1 201128Z 15005KT 18/17 A2984 RMK A01 T01760170  RH  096%=      5-min Rain = 0
KAI1 201129Z 16005KT 18/17 A2984 RMK A01 T01760170  RH  096%=      5-min Rain = 0
KAI1 201130Z 16005KT 18/17 A2984 RMK A01 T01760171  RH  097%=      5-min Rain = 0
KAI1 201131Z 16006KT 18/17 A2984 RMK A01 T01760171  RH  097%=      5-min Rain = 0
KAI1 201132Z 16006KT 18/17 A2984 RMK A01 T01770171  RH  097%=      5-min Rain = 0
KAI1 201133Z 16006KT 18/17 A2984 RMK A01 T01760171  RH  097%=      5-min Rain = 0
KAI1 201134Z 16006KT 18/17 A2984 RMK A01 T01770172  RH  097%=      5-min Rain = 0
KAI1 201135Z 16006KT 18/17 A2984 RMK A01 T01770172  RH  097%=      5-min Rain = 0
KAI1 201136Z 16006KT 18/17 A2984 RMK A01 T01770172  RH  097%=      5-min Rain = 0
KAI1 201137Z 16006KT 18/17 A2984 RMK A01 T01770173  RH  097%=      5-min Rain = 0
KAI1 201138Z 16006KT 18/17 A2984 RMK A01 T01770173  RH  097%=      5-min Rain = 0
KAI1 201139Z 16006KT 18/17 A2984 RMK A01 T01780173  RH  097%=      5-min Rain = 0
KAI1 201140Z 16006KT 18/17 A2984 RMK A01 T01780173  RH  097%=      5-min Rain = 0
KAI1 201141Z 17006KT 18/17 A2984 RMK A01 T01780174  RH  097%=      5-min Rain = 0
KAI1 201142Z 17006KT 18/17 A2984 RMK A01 T01780173  RH  097%=      5-min Rain = 0
KAI1 201143Z 17006KT 18/17 A2984 RMK A01 T01780173  RH  096%=      5-min Rain = 0
KAI1 201144Z 17006KT 18/17 A2984 RMK A01 T01790173  RH  096%=      5-min Rain = 0
KAI1 201145Z 17006KT 18/17 A2984 RMK A01 T01800173  RH  096%=      5-min Rain = 0
KAI1 201146Z 17006KT 18/17 A2984 RMK A01 T01800173  RH  096%=      5-min Rain = 0
KAI1 201147Z 17006KT 18/17 A2984 RMK A01 T01800173  RH  095%=      5-min Rain = 0
KAI1 201148Z 17006KT 18/17 A2984 RMK A01 T01810173  RH  095%=      5-min Rain = 0
KAI1 201149Z 18007KT 18/17 A2984 RMK A01 T01820174  RH  095%=      5-min Rain = 0
KAI1 201150Z 18007KT 18/17 A2984 RMK A01 T01820174  RH  095%=      5-min Rain = 0
KAI1 201151Z 18007KT 18/17 A2984 RMK A01 T01830174  RH  094%=      5-min Rain = 0
KAI1 201152Z 18007KT 18/17 A2984 RMK A01 T01830173  RH  094%=      5-min Rain = 0
KAI1 201153Z 18007KT 18/17 A2984 RMK A01 T01830173  RH  094%=      5-min Rain = 0
KAI1 201154Z 19007KT 18/17 A2984 RMK A01 T01830173  RH  094%=      5-min Rain = 0
KAI1 201155Z 19007KT 18/17 A2984 RMK A01 T01840173  RH  094%=      5-min Rain = 0
KAI1 201156Z 19007KT 18/17 A2984 RMK A01 T01840173  RH  093%=      5-min Rain = 0
KAI1 201157Z 19006KT 18/17 A2984 RMK A01 T01840171  RH  092%=      5-min Rain = 0
KAI1 201158Z 19006KT 18/17 A2984 RMK A01 T01830170  RH  092%=      5-min Rain = 0
KAI1 201159Z 20006KT 18/17 A2984 RMK A01 T01820169  RH  092%=      5-min Rain = 0
KAI1 201200Z 20006KT 18/17 A2984 RMK A01 T01810169  RH  092%=      5-min Rain = 0
KAI1 201201Z 20006KT 18/17 A2984 RMK A01 T01810168  RH  092%=      5-min Rain = 0
KAI1 201202Z 19006KT 18/17 A2984 RMK A01 T01800168  RH  092%=      5-min Rain = 0
KAI1 201203Z 19006KT 18/17 A2984 RMK A01 T01800168  RH  093%=      5-min Rain = 0
KAI1 201204Z 19006KT 18/17 A2984 RMK A01 T01800169  RH  093%=      5-min Rain = 0
KAI1 201205Z 19006KT 18/17 A2984 RMK A01 T01820171  RH  093%=      5-min Rain = 0
KAI1 201206Z 20006KT 18/17 A2984 RMK A01 T01830172  RH  093%=      5-min Rain = 0
KAI1 201207Z 20006KT 18/17 A2984 RMK A01 T01840171  RH  092%=      5-min Rain = 0
KAI1 201208Z 20006KT 18/17 A2984 RMK A01 T01840171  RH  092%=      5-min Rain = 0
KAI1 201209Z 21005KT 18/17 A2984 RMK A01 T01840170  RH  091%=      5-min Rain = 0
KAI1 201210Z 20005KT 18/17 A2984 RMK A01 T01840169  RH  091%=      5-min Rain = 0
KAI1 201211Z 21006KT 18/17 A2984 RMK A01 T01840169  RH  091%=      5-min Rain = 0
KAI1 201212Z 20007KT 18/17 A2984 RMK A01 T01830169  RH  091%=      5-min Rain = 0
KAI1 201213Z 20007KT 18/17 A2984 RMK A01 T01840170  RH  092%=      5-min Rain = 0
KAI1 201214Z 20006KT 19/17 A2984 RMK A01 T01850170  RH  091%=      5-min Rain = 0
KAI1 201215Z 20006KT 19/17 A2984 RMK A01 T01850171  RH  091%=      5-min Rain = 0
KAI1 201216Z 20006KT 19/17 A2984 RMK A01 T01860171  RH  091%=      5-min Rain = 0
KAI1 201217Z 19006KT 19/17 A2984 RMK A01 T01870171  RH  090%=      5-min Rain = 0
KAI1 201218Z 20006KT 19/17 A2984 RMK A01 T01880172  RH  090%=      5-min Rain = 0
KAI1 201219Z 20006KT 19/17 A2984 RMK A01 T01890171  RH  089%=      5-min Rain = 0
KAI1 201220Z 21006KT 19/17 A2984 RMK A01 T01900171  RH  089%=      5-min Rain = 0
KAI1 201221Z 21006KT 19/17 A2984 RMK A01 T01900171  RH  089%=      5-min Rain = 0
KAI1 201222Z 22005KT 19/17 A2984 RMK A01 T01900171  RH  089%=      5-min Rain = 0
KAI1 201223Z 22005KT 19/17 A2984 RMK A01 T01890171  RH  089%=      5-min Rain = 0
KAI1 201224Z 22005KT 19/17 A2984 RMK A01 T01890172  RH  090%=      5-min Rain = 0
KAI1 201225Z 21004KT 19/17 A2984 RMK A01 T01890172  RH  090%=      5-min Rain = 0
KAI1 201226Z 21004KT 19/17 A2984 RMK A01 T01880172  RH  090%=      5-min Rain = 0
KAI1 201227Z 22004KT 19/17 A2984 RMK A01 T01880172  RH  091%=      5-min Rain = 0
KAI1 201228Z 22004KT 19/17 A2984 RMK A01 T01880172  RH  091%=      5-min Rain = 0
KAI1 201229Z 22004KT 19/17 A2984 RMK A01 T01890173  RH  090%=      5-min Rain = 0
KAI1 201230Z 22004KT 19/17 A2984 RMK A01 T01890173  RH  091%=      5-min Rain = 0
KAI1 201231Z 22005KT 19/17 A2984 RMK A01 T01890173  RH  091%=      5-min Rain = 0
KAI1 201232Z 22005KT 19/17 A2984 RMK A01 T01890173  RH  091%=      5-min Rain = 0
KAI1 201233Z 22004KT 19/17 A2984 RMK A01 T01880173  RH  091%=      5-min Rain = 0
KAI1 201234Z 23004KT 19/17 A2984 RMK A01 T01890174  RH  091%=      5-min Rain = 0
KAI1 201235Z 24004KT 19/17 A2984 RMK A01 T01890173  RH  091%=      5-min Rain = 0
KAI1 201236Z 24004KT 19/17 A2984 RMK A01 T01890173  RH  091%=      5-min Rain = 0
KAI1 201237Z 24005KT 19/17 A2985 RMK A01 T01890173  RH  090%=      5-min Rain = 0
KAI1 201238Z 24005KT 19/17 A2985 RMK A01 T01890172  RH  090%=      5-min Rain = 0
KAI1 201239Z 25005KT 19/17 A2985 RMK A01 T01900172  RH  089%=      5-min Rain = 0
KAI1 201240Z 25005KT 19/17 A2985 RMK A01 T01900172  RH  089%=      5-min Rain = 0
KAI1 201241Z 25004KT 19/17 A2985 RMK A01 T01910173  RH  090%=      5-min Rain = 0
KAI1 201242Z 26004KT 19/17 A2985 RMK A01 T01910173  RH  089%=      5-min Rain = 0
KAI1 201243Z 27004KT 19/17 A2985 RMK A01 T01920173  RH  089%=      5-min Rain = 0
KAI1 201244Z 27005KT 19/17 A2985 RMK A01 T01930174  RH  089%=      5-min Rain = 0
KAI1 201245Z 29006KT 19/17 A2985 RMK A01 T01930173  RH  088%=      5-min Rain = 0
KAI1 201246Z 30006KT 19/18 A2985 RMK A01 T01940176  RH  089%=      5-min Rain = 0
KAI1 201247Z 31006KT 20/18 A2985 RMK A01 T01950177  RH  089%=      5-min Rain = 0
KAI1 201248Z 32007KT 20/18 A2985 RMK A01 T01960177  RH  089%=      5-min Rain = 0
KAI1 201249Z 31007KT 20/18 A2986 RMK A01 T01960177  RH  089%=      5-min Rain = 0
KAI1 201250Z 32008KT 20/18 A2986 RMK A01 T01960177  RH  088%=      5-min Rain = 0
KAI1 201251Z 33007KT 20/18 A2986 RMK A01 T01960177  RH  088%=      5-min Rain = 0
KAI1 201252Z 34006KT 20/18 A2986 RMK A01 T01960178  RH  089%=      5-min Rain = 0
KAI1 201253Z 34005KT 20/18 A2986 RMK A01 T01960178  RH  089%=      5-min Rain = 0
KAI1 201254Z 33005KT 20/18 A2986 RMK A01 T01960177  RH  089%=      5-min Rain = 0
KAI1 201255Z 33005KT 20/18 A2986 RMK A01 T01960176  RH  088%=      5-min Rain = 0
KAI1 201256Z 33004KT 20/18 A2986 RMK A01 T01960177  RH  089%=      5-min Rain = 0
KAI1 201257Z 32004KT 20/18 A2986 RMK A01 T01960177  RH  089%=      5-min Rain = 0
KAI1 201258Z 32004KT 20/18 A2986 RMK A01 T01970176  RH  087%=      5-min Rain = 0
KAI1 201259Z 32004KT 20/18 A2986 RMK A01 T01980177  RH  088%=      5-min Rain = 0
KAI1 201300Z 31004KT 20/18 A2986 RMK A01 T01990179  RH  088%=      5-min Rain = 0
KAI1 201301Z 31004KT 20/18 A2986 RMK A01 T02000179  RH  088%=      5-min Rain = 0
KAI1 201302Z 31005KT 20/18 A2986 RMK A01 T02010179  RH  087%=      5-min Rain = 0
KAI1 201303Z 30003KT 20/18 A2986 RMK A01 T02020177  RH  086%=      5-min Rain = 0
KAI1 201304Z 30004KT 20/18 A2986 RMK A01 T02030179  RH  086%=      5-min Rain = 0
KAI1 201305Z 28003KT 20/18 A2985 RMK A01 T02030177  RH  085%=      5-min Rain = 0
KAI1 201306Z 28004KT 20/18 A2985 RMK A01 T02040177  RH  085%=      5-min Rain = 0
KAI1 201307Z 28004KT 20/18 A2985 RMK A01 T02040177  RH  084%=      5-min Rain = 0
KAI1 201308Z 28004KT 21/18 A2985 RMK A01 T02050180  RH  086%=      5-min Rain = 0
KAI1 201309Z 28005KT 21/18 A2985 RMK A01 T02050180  RH  085%=      5-min Rain = 0
KAI1 201310Z 27004KT 21/18 A2985 RMK A01 T02060180  RH  085%=      5-min Rain = 0
KAI1 201311Z 27005KT 21/18 A2985 RMK A01 T02060180  RH  085%=      5-min Rain = 0
KAI1 201312Z 27005KT 21/18 A2985 RMK A01 T02070177  RH  083%=      5-min Rain = 0
KAI1 201313Z 27006KT 21/18 A2986 RMK A01 T02070179  RH  084%=      5-min Rain = 0
KAI1 201314Z 28006KT 21/18 A2986 RMK A01 T02070181  RH  085%=      5-min Rain = 0
KAI1 201315Z 28006KT 21/18 A2986 RMK A01 T02080179  RH  083%=      5-min Rain = 0
KAI1 201316Z 28005KT 21/18 A2986 RMK A01 T02090180  RH  084%=      5-min Rain = 0
KAI1 201317Z 28005KT 21/18 A2986 RMK A01 T02090178  RH  083%=      5-min Rain = 0
KAI1 201318Z 28005KT 21/18 A2986 RMK A01 T02090178  RH  082%=      5-min Rain = 0
KAI1 201319Z 28005KT 21/18 A2986 RMK A01 T02090175  RH  080%=      5-min Rain = 0
KAI1 201320Z 27005KT 21/18 A2986 RMK A01 T02100175  RH  081%=      5-min Rain = 0
KAI1 201321Z 27005KT 21/18 A2986 RMK A01 T02100177  RH  082%=      5-min Rain = 0
KAI1 201322Z 28006KT 21/18 A2986 RMK A01 T02110179  RH  082%=      5-min Rain = 0
KAI1 201323Z 27006KT 21/18 A2986 RMK A01 T02110177  RH  081%=      5-min Rain = 0
KAI1 201324Z 27005KT 21/18 A2986 RMK A01 T02110178  RH  081%=      5-min Rain = 0
KAI1 201325Z 27005KT 21/18 A2986 RMK A01 T02110177  RH  081%=      5-min Rain = 0
KAI1 201326Z 27005KT 21/18 A2986 RMK A01 T02110176  RH  080%=      5-min Rain = 0
KAI1 201327Z 27004KT 21/18 A2986 RMK A01 T02120179  RH  081%=      5-min Rain = 0
KAI1 201328Z 26004KT 21/18 A2986 RMK A01 T02120178  RH  081%=      5-min Rain = 0
KAI1 201329Z 26004KT 21/18 A2986 RMK A01 T02130179  RH  081%=      5-min Rain = 0
KAI1 201330Z 27004KT 21/18 A2986 RMK A01 T02140177  RH  080%=      5-min Rain = 0
KAI1 201331Z 26004KT 22/18 A2986 RMK A01 T02150179  RH  080%=      5-min Rain = 0
KAI1 201332Z 26004KT 22/18 A2986 RMK A01 T02150179  RH  080%=      5-min Rain = 0
KAI1 201333Z 26005KT 22/18 A2986 RMK A01 T02160178  RH  079%=      5-min Rain = 0
KAI1 201334Z 26006KT 22/18 A2986 RMK A01 T02160178  RH  079%=      5-min Rain = 0
KAI1 201335Z 25005KT 22/18 A2986 RMK A01 T02170179  RH  079%=      5-min Rain = 0
KAI1 201336Z 23005KT 22/18 A2986 RMK A01 T02170180  RH  079%=      5-min Rain = 0
KAI1 201337Z 25005KT 22/18 A2986 RMK A01 T02180181  RH  080%=      5-min Rain = 0
KAI1 201338Z 25006KT 22/18 A2986 RMK A01 T02190182  RH  079%=      5-min Rain = 0
KAI1 201339Z 25006KT 22/18 A2986 RMK A01 T02190181  RH  079%=      5-min Rain = 0
KAI1 201340Z 24006KT 22/18 A2986 RMK A01 T02200181  RH  078%=      5-min Rain = 0
KAI1 201341Z 24006KT 22/18 A2986 RMK A01 T02210180  RH  078%=      5-min Rain = 0
KAI1 201342Z 23006KT 22/18 A2986 RMK A01 T02210181  RH  078%=      5-min Rain = 0
KAI1 201343Z 23005KT 22/18 A2986 RMK A01 T02220182  RH  078%=      5-min Rain = 0
KAI1 201344Z 24005KT 22/18 A2986 RMK A01 T02230184  RH  079%=      5-min Rain = 0
KAI1 201345Z 23005KT 22/18 A2986 RMK A01 T02240184  RH  078%=      5-min Rain = 0
KAI1 201346Z 22006KT 23/19 A2986 RMK A01 T02250185  RH  078%=      5-min Rain = 0
KAI1 201347Z 22007KT 23/18 A2986 RMK A01 T02250183  RH  077%=      5-min Rain = 0
KAI1 201348Z 22008KT 23/18 A2986 RMK A01 T02260182  RH  076%=      5-min Rain = 0
KAI1 201349Z 21008KT 23/18 A2986 RMK A01 T02260181  RH  076%=      5-min Rain = 0
KAI1 201350Z 21008KT 23/18 A2986 RMK A01 T02260181  RH  076%=      5-min Rain = 0
KAI1 201351Z 22008KT 23/18 A2986 RMK A01 T02260181  RH  076%=      5-min Rain = 0
KAI1 201352Z 22008KT 23/18 A2986 RMK A01 T02260183  RH  076%=      5-min Rain = 0
KAI1 201353Z 23008KT 23/18 A2986 RMK A01 T02270183  RH  076%=      5-min Rain = 0
KAI1 201354Z 22008KT 23/18 A2986 RMK A01 T02280184  RH  076%=      5-min Rain = 0
KAI1 201355Z 22008KT 23/18 A2986 RMK A01 T02280184  RH  076%=      5-min Rain = 0
KAI1 201356Z 22009KT 23/18 A2986 RMK A01 T02290182  RH  075%=      5-min Rain = 0
KAI1 201357Z 22008KT 23/18 A2986 RMK A01 T02290182  RH  074%=      5-min Rain = 0
KAI1 201358Z 22009KT 23/18 A2986 RMK A01 T02290182  RH  074%=      5-min Rain = 0
KAI1 201359Z 23009KT 23/18 A2986 RMK A01 T02290182  RH  075%=      5-min Rain = 0
KAI1 201400Z 23009KT 23/18 A2986 RMK A01 T02300183  RH  075%=      5-min Rain = 0
KAI1 201401Z 23010KT 23/18 A2986 RMK A01 T02300184  RH  075%=      5-min Rain = 0
KAI1 201402Z 23009KT 23/18 A2986 RMK A01 T02310183  RH  075%=      5-min Rain = 0
KAI1 201403Z 22010KT 23/18 A2985 RMK A01 T02320182  RH  073%=      5-min Rain = 0
KAI1 201404Z 22009KT 23/18 A2985 RMK A01 T02320183  RH  074%=      5-min Rain = 0
KAI1 201405Z 22009KT 23/18 A2985 RMK A01 T02320183  RH  074%=      5-min Rain = 0
KAI1 201406Z 23008KT 23/18 A2985 RMK A01 T02320184  RH  074%=      5-min Rain = 0
KAI1 201407Z 22009KT 23/18 A2985 RMK A01 T02320183  RH  074%=      5-min Rain = 0
KAI1 201408Z 22008KT 23/18 A2985 RMK A01 T02320184  RH  074%=      5-min Rain = 0
KAI1 201409Z 23009KT 23/18 A2985 RMK A01 T02330184  RH  074%=      5-min Rain = 0
KAI1 201410Z 23008KT 23/18 A2985 RMK A01 T02340182  RH  072%=      5-min Rain = 0
KAI1 201411Z 22009KT 24/18 A2985 RMK A01 T02360184  RH  073%=      5-min Rain = 0
KAI1 201412Z 23008KT 24/18 A2985 RMK A01 T02370184  RH  072%=      5-min Rain = 0
KAI1 201413Z 23010KT 24/18 A2985 RMK A01 T02380182  RH  071%=      5-min Rain = 0
KAI1 201414Z 23009KT 24/18 A2985 RMK A01 T02370180  RH  070%=      5-min Rain = 0
KAI1 201415Z 23008KT 24/18 A2985 RMK A01 T02370181  RH  071%=      5-min Rain = 0
KAI1 201416Z 23009KT 24/18 A2985 RMK A01 T02380181  RH  071%=      5-min Rain = 0
KAI1 201417Z 23008KT 24/18 A2986 RMK A01 T02390183  RH  071%=      5-min Rain = 0
KAI1 201418Z 24009KT 24/18 A2986 RMK A01 T02400184  RH  071%=      5-min Rain = 0
KAI1 201419Z 24009KT 24/18 A2986 RMK A01 T02410183  RH  070%=      5-min Rain = 0
KAI1 201420Z 23009KT 24/18 A2985 RMK A01 T02420182  RH  069%=      5-min Rain = 0
KAI1 201421Z 23009KT 24/18 A2985 RMK A01 T02420179  RH  068%=      5-min Rain = 0
KAI1 201422Z 23007KT 24/18 A2985 RMK A01 T02420179  RH  068%=      5-min Rain = 0
KAI1 201423Z 22007KT 24/18 A2985 RMK A01 T02430180  RH  068%=      5-min Rain = 0
KAI1 201424Z 22007KT 24/18 A2985 RMK A01 T02430181  RH  068%=      5-min Rain = 0
KAI1 201425Z 23007KT 24/18 A2985 RMK A01 T02430181  RH  068%=      5-min Rain = 0
KAI1 201426Z 22007KT 24/18 A2985 RMK A01 T02430183  RH  069%=      5-min Rain = 0
KAI1 201427Z 24008KT 24/18 A2986 RMK A01 T02440182  RH  068%=      5-min Rain = 0
KAI1 201428Z 24008KT 24/18 A2986 RMK A01 T02440181  RH  068%=      5-min Rain = 0
KAI1 201429Z 22008KT 25/18 A2985 RMK A01 T02450178  RH  066%=      5-min Rain = 0
KAI1 201430Z 21008KT 25/18 A2985 RMK A01 T02460178  RH  066%=      5-min Rain = 0
KAI1 201431Z 21008KT 25/18 A2985 RMK A01 T02460177  RH  065%=      5-min Rain = 0
KAI1 201432Z 22007KT 25/18 A2985 RMK A01 T02470179  RH  066%=      5-min Rain = 0
KAI1 201433Z 23008KT 25/18 A2985 RMK A01 T02480179  RH  065%=      5-min Rain = 0
KAI1 201434Z 23008KT 25/18 A2986 RMK A01 T02490177  RH  064%=      5-min Rain = 0
KAI1 201435Z 24008KT 25/18 A2986 RMK A01 T02490180  RH  065%=      5-min Rain = 0
KAI1 201436Z 23006KT 25/18 A2986 RMK A01 T02490180  RH  065%=      5-min Rain = 0
KAI1 201437Z 22007KT 25/18 A2985 RMK A01 T02490179  RH  065%=      5-min Rain = 0
KAI1 201438Z 21007KT 25/18 A2985 RMK A01 T02500181  RH  066%=      5-min Rain = 0
KAI1 201439Z 21006KT 25/18 A2985 RMK A01 T02510178  RH  064%=      5-min Rain = 0
KAI1 201440Z 21007KT 25/18 A2985 RMK A01 T02510179  RH  064%=      5-min Rain = 0
KAI1 201441Z 21007KT 25/18 A2985 RMK A01 T02510180  RH  065%=      5-min Rain = 0
KAI1 201442Z 22007KT 25/18 A2985 RMK A01 T02520182  RH  065%=      5-min Rain = 0
KAI1 201443Z 23006KT 25/18 A2985 RMK A01 T02530181  RH  064%=      5-min Rain = 0
KAI1 201444Z 21006KT 25/18 A2985 RMK A01 T02540180  RH  064%=      5-min Rain = 0
KAI1 201445Z 22008KT 25/18 A2985 RMK A01 T02530179  RH  064%=      5-min Rain = 0
KAI1 201446Z 23007KT 25/18 A2985 RMK A01 T02530177  RH  062%=      5-min Rain = 0
KAI1 201447Z 23007KT 26/18 A2985 RMK A01 T02550178  RH  062%=      5-min Rain = 0
KAI1 201448Z 22007KT 26/18 A2985 RMK A01 T02560180  RH  063%=      5-min Rain = 0
KAI1 201449Z 23008KT 26/18 A2985 RMK A01 T02570180  RH  062%=      5-min Rain = 0
KAI1 201450Z 23007KT 26/18 A2985 RMK A01 T02570179  RH  062%=      5-min Rain = 0
KAI1 201451Z 24006KT 26/18 A2985 RMK A01 T02580181  RH  063%=      5-min Rain = 0
KAI1 201452Z 23006KT 26/18 A2985 RMK A01 T02590178  RH  061%=      5-min Rain = 0
KAI1 201453Z 23007KT 26/18 A2985 RMK A01 T02590180  RH  062%=      5-min Rain = 0
KAI1 201454Z 24006KT 26/18 A2985 RMK A01 T02590180  RH  062%=      5-min Rain = 0
KAI1 201455Z 24006KT 26/18 A2985 RMK A01 T02620180  RH  061%=      5-min Rain = 0
KAI1 201456Z 23006KT 26/18 A2985 RMK A01 T02630178  RH  060%=      5-min Rain = 0
KAI1 201457Z 23006KT 26/18 A2985 RMK A01 T02640178  RH  059%=      5-min Rain = 0
KAI1 201458Z 21007KT 26/18 A2985 RMK A01 T02630182  RH  061%=      5-min Rain = 0
KAI1 201459Z 21006KT 26/18 A2985 RMK A01 T02630181  RH  060%=      5-min Rain = 0
KAI1 201500Z 23006KT 27/18 A2985 RMK A01 T02660181  RH  060%=      5-min Rain = 0
KAI1 201501Z 24007KT 27/18 A2985 RMK A01 T02680180  RH  058%=      5-min Rain = 0
KAI1 201502Z 23007KT 27/18 A2985 RMK A01 T02690178  RH  058%=      5-min Rain = 0
KAI1 201503Z 23007KT 27/18 A2985 RMK A01 T02690177  RH  057%=      5-min Rain = 0
KAI1 201504Z 23006KT 27/18 A2985 RMK A01 T02680177  RH  057%=      5-min Rain = 0
KAI1 201505Z 22007KT 27/18 A2985 RMK A01 T02680175  RH  057%=      5-min Rain = 0
KAI1 201506Z 22007KT 27/17 A2985 RMK A01 T02690174  RH  056%=      5-min Rain = 0
KAI1 201507Z 23006KT 27/18 A2985 RMK A01 T02700178  RH  057%=      5-min Rain = 0
KAI1 201508Z 22007KT 27/18 A2985 RMK A01 T02710180  RH  058%=      5-min Rain = 0
KAI1 201509Z 22006KT 27/18 A2985 RMK A01 T02710180  RH  058%=      5-min Rain = 0
KAI1 201510Z 21006KT 27/18 A2985 RMK A01 T02700180  RH  058%=      5-min Rain = 0
KAI1 201511Z 23008KT 27/18 A2985 RMK A01 T02710180  RH  057%=      5-min Rain = 0
KAI1 201512Z 24007KT 27/18 A2985 RMK A01 T02720178  RH  056%=      5-min Rain = 0
KAI1 201513Z 23007KT 27/18 A2985 RMK A01 T02730180  RH  057%=      5-min Rain = 0
KAI1 201514Z 22006KT 27/18 A2985 RMK A01 T02730179  RH  056%=      5-min Rain = 0
KAI1 201515Z 22006KT 27/18 A2985 RMK A01 T02740183  RH  058%=      5-min Rain = 0
KAI1 201516Z 22007KT 28/18 A2985 RMK A01 T02760179  RH  056%=      5-min Rain = 0
KAI1 201517Z 23006KT 28/18 A2985 RMK A01 T02760177  RH  055%=      5-min Rain = 0
KAI1 201518Z 21007KT 28/18 A2985 RMK A01 T02760179  RH  055%=      5-min Rain = 0
KAI1 201519Z 24007KT 28/18 A2985 RMK A01 T02770180  RH  056%=      5-min Rain = 0
KAI1 201520Z 24005KT 28/18 A2985 RMK A01 T02780178  RH  054%=      5-min Rain = 0
KAI1 201521Z 23006KT 28/18 A2985 RMK A01 T02800181  RH  055%=      5-min Rain = 0
KAI1 201522Z 24005KT 28/17 A2985 RMK A01 T02800171  RH  051%=      5-min Rain = 0
KAI1 201523Z 24006KT 28/18 A2985 RMK A01 T02810178  RH  053%=      5-min Rain = 0
KAI1 201524Z 22006KT 28/18 A2985 RMK A01 T02820178  RH  053%=      5-min Rain = 0
KAI1 201525Z 23007KT 28/18 A2985 RMK A01 T02830183  RH  054%=      5-min Rain = 0
KAI1 201526Z 23007KT 29/18 A2985 RMK A01 T02860180  RH  053%=      5-min Rain = 0
KAI1 201527Z 24006KT 28/18 A2985 RMK A01 T02840180  RH  053%=      5-min Rain = 0
KAI1 201528Z 23007KT 28/18 A2985 RMK A01 T02840179  RH  053%=      5-min Rain = 0
KAI1 201529Z 22006KT 28/18 A2985 RMK A01 T02840178  RH  053%=      5-min Rain = 0
KAI1 201530Z 22006KT 28/18 A2985 RMK A01 T02840181  RH  054%=      5-min Rain = 0
KAI1 201531Z 23005KT 29/18 A2985 RMK A01 T02860179  RH  052%=      5-min Rain = 0
KAI1 201532Z 24006KT 29/18 A2985 RMK A01 T02860175  RH  051%=      5-min Rain = 0
KAI1 201533Z 25006KT 29/18 A2985 RMK A01 T02850175  RH  051%=      5-min Rain = 0
KAI1 201534Z 24006KT 29/17 A2985 RMK A01 T02860174  RH  051%=      5-min Rain = 0
KAI1 201535Z 24008KT 29/17 A2985 RMK A01 T02870173  RH  050%=      5-min Rain = 0
KAI1 201536Z 24007KT 29/18 A2985 RMK A01 T02880177  RH  051%=      5-min Rain = 0
KAI1 201537Z 22005KT 29/17 A2985 RMK A01 T02890174  RH  050%=      5-min Rain = 0
KAI1 201538Z 22005KT 29/18 A2985 RMK A01 T02890180  RH  052%=      5-min Rain = 0
KAI1 201539Z 25006KT 29/17 A2985 RMK A01 T02910170  RH  048%=      5-min Rain = 0
KAI1 201540Z 25006KT 29/18 A2985 RMK A01 T02910175  RH  049%=      5-min Rain = 0
KAI1 201541Z 24007KT 29/18 A2985 RMK A01 T02910176  RH  050%=      5-min Rain = 0
KAI1 201542Z 24007KT 29/17 A2985 RMK A01 T02910165  RH  047%=      5-min Rain = 0
KAI1 201543Z 23006KT 29/17 A2985 RMK A01 T02930170  RH  048%=      5-min Rain = 0
KAI1 201544Z 23005KT 29/17 A2985 RMK A01 T02940169  RH  047%=      5-min Rain = 0
KAI1 201545Z 26006KT 30/17 A2985 RMK A01 T02950166  RH  046%=      5-min Rain = 0
KAI1 201546Z 26005KT 30/16 A2985 RMK A01 T02950160  RH  044%=      5-min Rain = 0
KAI1 201547Z 25005KT 30/17 A2985 RMK A01 T02950165  RH  046%=      5-min Rain = 0
KAI1 201548Z 23005KT 30/18 A2985 RMK A01 T02950175  RH  049%=      5-min Rain = 0
KAI1 201549Z 24006KT 30/17 A2985 RMK A01 T02950174  RH  048%=      5-min Rain = 0
KAI1 201550Z 24006KT 30/17 A2985 RMK A01 T02950173  RH  048%=      5-min Rain = 0
KAI1 201551Z 23006KT 30/16 A2985 RMK A01 T02960162  RH  044%=      5-min Rain = 0
KAI1 201552Z 24006KT 30/16 A2985 RMK A01 T02960159  RH  043%=      5-min Rain = 0
KAI1 201553Z 23005KT 30/17 A2985 RMK A01 T02970165  RH  045%=      5-min Rain = 0
KAI1 201554Z 24006KT 30/17 A2985 RMK A01 T02980173  RH  047%=      5-min Rain = 0
KAI1 201555Z 25010KT 30/17 A2985 RMK A01 T03010174  RH  047%=      5-min Rain = 0
KAI1 201556Z 25012KT 30/17 A2986 RMK A01 T03020167  RH  044%=      5-min Rain = 0
KAI1 201557Z 25012KT 30/17 A2986 RMK A01 T03020172  RH  046%=      5-min Rain = 0
KAI1 201558Z 25013KT 30/18 A2986 RMK A01 T03030176  RH  046%=      5-min Rain = 0
KAI1 201559Z 23013KT 30/17 A2986 RMK A01 T03030174  RH  046%=      5-min Rain = 0
KAI1 201600Z 23009KT 30/17 A2985 RMK A01 T03010173  RH  046%=      5-min Rain = 0
KAI1 201601Z 25007KT 30/18 A2985 RMK A01 T03020175  RH  047%=      5-min Rain = 0
KAI1 201602Z 24009KT 30/17 A2985 RMK A01 T03040170  RH  045%=      5-min Rain = 0
KAI1 201603Z 24008KT 30/17 A2985 RMK A01 T03040169  RH  044%=      5-min Rain = 0
KAI1 201604Z 24008KT 30/17 A2985 RMK A01 T03030168  RH  044%=      5-min Rain = 0
KAI1 201605Z 24008KT 30/17 A2985 RMK A01 T03020171  RH  045%=      5-min Rain = 0
KAI1 201606Z 24011KT 30/17 A2985 RMK A01 T03020173  RH  046%=      5-min Rain = 0
KAI1 201607Z 24011KT 30/17 A2985 RMK A01 T03040170  RH  045%=      5-min Rain = 0
KAI1 201608Z 25011KT 31/17 A2985 RMK A01 T03060169  RH  044%=      5-min Rain = 0
KAI1 201609Z 23010KT 31/17 A2985 RMK A01 T03050170  RH  044%=      5-min Rain = 0
KAI1 201610Z 24011KT 31/17 A2985 RMK A01 T03050170  RH  045%=      5-min Rain = 0
KAI1 201611Z 24007KT 31/17 A2985 RMK A01 T03050173  RH  045%=      5-min Rain = 0
KAI1 201612Z 24008KT 31/18 A2985 RMK A01 T03080177  RH  045%=      5-min Rain = 0
KAI1 201613Z 26007KT 31/17 A2985 RMK A01 T03100165  RH  042%=      5-min Rain = 0
KAI1 201614Z 25009KT 31/17 A2985 RMK A01 T03110166  RH  042%=      5-min Rain = 0
KAI1 201615Z 24010KT 31/18 A2985 RMK A01 T03110175  RH  044%=      5-min Rain = 0
KAI1 201616Z 23010KT 31/17 A2985 RMK A01 T03110173  RH  044%=      5-min Rain = 0
KAI1 201617Z 24008KT 31/17 A2985 RMK A01 T03110173  RH  043%=      5-min Rain = 0
KAI1 201618Z 25006KT 31/18 A2985 RMK A01 T03110177  RH  045%=      5-min Rain = 0
KAI1 201619Z 25009KT 31/17 A2985 RMK A01 T03120172  RH  043%=      5-min Rain = 0
KAI1 201620Z 25007KT 31/17 A2985 RMK A01 T03110166  RH  042%=      5-min Rain = 0
KAI1 201621Z 24008KT 31/17 A2985 RMK A01 T03100166  RH  042%=      5-min Rain = 0
KAI1 201622Z 26010KT 31/16 A2985 RMK A01 T03100163  RH  041%=      5-min Rain = 0
KAI1 201623Z 27009KT 31/17 A2985 RMK A01 T03130165  RH  041%=      5-min Rain = 0
KAI1 201624Z 26008KT 31/17 A2985 RMK A01 T03140166  RH  041%=      5-min Rain = 0
KAI1 201625Z 24010KT 31/17 A2985 RMK A01 T03140171  RH  042%=      5-min Rain = 0
KAI1 201626Z 26010KT 32/17 A2985 RMK A01 T03150169  RH  042%=      5-min Rain = 0
KAI1 201627Z 26008KT 31/17 A2985 RMK A01 T03140166  RH  041%=      5-min Rain = 0
KAI1 201628Z 25009KT 31/17 A2985 RMK A01 T03130170  RH  042%=      5-min Rain = 0
KAI1 201629Z 24008KT 31/17 A2985 RMK A01 T03140167  RH  041%=      5-min Rain = 0
KAI1 201630Z 23007KT 32/17 A2985 RMK A01 T03160171  RH  042%=      5-min Rain = 0
KAI1 201631Z 23007KT 32/16 A2985 RMK A01 T03180162  RH  039%=      5-min Rain = 0
KAI1 201632Z 24009KT 32/17 A2985 RMK A01 T03170167  RH  041%=      5-min Rain = 0
KAI1 201633Z 24007KT 32/16 A2985 RMK A01 T03170164  RH  040%=      5-min Rain = 0
KAI1 201634Z 26008KT 32/16 A2985 RMK A01 T03160159  RH  039%=      5-min Rain = 0
KAI1 201635Z 27008KT 32/16 A2985 RMK A01 T03180155  RH  037%=      5-min Rain = 0
KAI1 201636Z 28008KT 32/15 A2985 RMK A01 T03190154  RH  037%=      5-min Rain = 0
KAI1 201637Z 27006KT 32/15 A2985 RMK A01 T03170153  RH  037%=      5-min Rain = 0
KAI1 201638Z 25007KT 32/16 A2985 RMK A01 T03160156  RH  038%=      5-min Rain = 0
KAI1 201639Z 24009KT 32/16 A2985 RMK A01 T03160161  RH  039%=      5-min Rain = 0
KAI1 201640Z 23009KT 32/16 A2985 RMK A01 T03180158  RH  038%=      5-min Rain = 0
KAI1 201641Z 24009KT 32/16 A2985 RMK A01 T03180157  RH  038%=      5-min Rain = 0
KAI1 201642Z 23006KT 32/16 A2985 RMK A01 T03190159  RH  038%=      5-min Rain = 0
KAI1 201643Z 23006KT 32/16 A2985 RMK A01 T03200161  RH  039%=      5-min Rain = 0
KAI1 201644Z 24009KT 32/16 A2985 RMK A01 T03220162  RH  038%=      5-min Rain = 0
KAI1 201645Z 25008KT 32/17 A2985 RMK A01 T03220166  RH  039%=      5-min Rain = 0
KAI1 201646Z 24005KT 32/16 A2985 RMK A01 T03220162  RH  038%=      5-min Rain = 0
KAI1 201647Z 24009KT 32/16 A2985 RMK A01 T03210163  RH  039%=      5-min Rain = 0
KAI1 201648Z 23006KT 32/16 A2985 RMK A01 T03210160  RH  038%=      5-min Rain = 0
KAI1 201649Z 24007KT 32/16 A2985 RMK A01 T03210164  RH  039%=      5-min Rain = 0
KAI1 201650Z 23007KT 32/16 A2985 RMK A01 T03220159  RH  038%=      5-min Rain = 0
KAI1 201651Z 24007KT 32/15 A2985 RMK A01 T03220151  RH  036%=      5-min Rain = 0
KAI1 201652Z 25008KT 32/16 A2985 RMK A01 T03240158  RH  037%=      5-min Rain = 0
KAI1 201653Z 23006KT 33/16 A2985 RMK A01 T03260159  RH  037%=      5-min Rain = 0
KAI1 201654Z 21008KT 33/16 A2985 RMK A01 T03280158  RH  036%=      5-min Rain = 0
KAI1 201655Z 20007KT 33/15 A2985 RMK A01 T03270154  RH  035%=      5-min Rain = 0
KAI1 201656Z 19006KT 33/15 A2985 RMK A01 T03270154  RH  035%=      5-min Rain = 0
KAI1 201657Z 22005KT 33/16 A2985 RMK A01 T03260155  RH  036%=      5-min Rain = 0
KAI1 201658Z 26006KT 33/15 A2985 RMK A01 T03270147  RH  034%=      5-min Rain = 0
KAI1 201659Z 24005KT 33/14 A2986 RMK A01 T03270142  RH  033%=      5-min Rain = 0
KAI1 201700Z 24007KT 33/15 A2986 RMK A01 T03280153  RH  035%=      5-min Rain = 0
KAI1 201701Z 25006KT 33/15 A2986 RMK A01 T03300147  RH  033%=      5-min Rain = 0
KAI1 201702Z 25006KT 33/15 A2986 RMK A01 T03300151  RH  034%=      5-min Rain = 0
KAI1 201703Z 25006KT 33/15 A2986 RMK A01 T03290150  RH  034%=      5-min Rain = 0
KAI1 201704Z 23006KT 33/16 A2986 RMK A01 T03300159  RH  036%=      5-min Rain = 0
KAI1 201705Z 23006KT 33/15 A2986 RMK A01 T03310151  RH  034%=      5-min Rain = 0
KAI1 201706Z 26006KT 33/15 A2986 RMK A01 T03320149  RH  033%=      5-min Rain = 0
KAI1 201707Z 22005KT 33/15 A2986 RMK A01 T03310147  RH  033%=      5-min Rain = 0
KAI1 201708Z 23007KT 33/15 A2986 RMK A01 T03310153  RH  034%=      5-min Rain = 0
KAI1 201709Z 23007KT 33/15 A2986 RMK A01 T03310152  RH  034%=      5-min Rain = 0
KAI1 201710Z 24006KT 33/15 A2986 RMK A01 T03310152  RH  034%=      5-min Rain = 0
KAI1 201711Z 23006KT 33/15 A2986 RMK A01 T03310154  RH  034%=      5-min Rain = 0
KAI1 201712Z 23008KT 33/15 A2986 RMK A01 T03320152  RH  034%=      5-min Rain = 0
KAI1 201713Z 26010KT 34/16 A2986 RMK A01 T03350156  RH  034%=      5-min Rain = 0
KAI1 201714Z 25007KT 34/15 A2986 RMK A01 T03350154  RH  034%=      5-min Rain = 0
KAI1 201715Z 22005KT 34/15 A2986 RMK A01 T03360146  RH  032%=      5-min Rain = 0
KAI1 201716Z 22004KT 34/13 A2986 RMK A01 T03370133  RH  029%=      5-min Rain = 0
KAI1 201717Z 24008KT 34/14 A2986 RMK A01 T03370142  RH  031%=      5-min Rain = 0
KAI1 201718Z 24009KT 34/14 A2986 RMK A01 T03370139  RH  030%=      5-min Rain = 0
KAI1 201719Z 24007KT 34/13 A2986 RMK A01 T03350134  RH  030%=      5-min Rain = 0
KAI1 201720Z 24007KT 34/14 A2986 RMK A01 T03350142  RH  031%=      5-min Rain = 0
KAI1 201721Z 26009KT 34/14 A2985 RMK A01 T03380142  RH  031%=      5-min Rain = 0
KAI1 201722Z 25007KT 34/14 A2986 RMK A01 T03380139  RH  030%=      5-min Rain = 0
KAI1 201723Z 24007KT 34/14 A2985 RMK A01 T03370141  RH  031%=      5-min Rain = 0
KAI1 201724Z 24004KT 34/14 A2985 RMK A01 T03360138  RH  030%=      5-min Rain = 0
KAI1 201725Z 25007KT 34/14 A2985 RMK A01 T03370143  RH  031%=      5-min Rain = 0
KAI1 201726Z 26006KT 34/12 A2986 RMK A01 T03370123  RH  027%=      5-min Rain = 0
KAI1 201727Z 27004KT 34/11 A2985 RMK A01 T03380109  RH  025%=      5-min Rain = 0
KAI1 201728Z 26004KT 34/12 A2985 RMK A01 T03380122  RH  027%=      5-min Rain = 0
KAI1 201729Z 22005KT 34/14 A2985 RMK A01 T03390144  RH  031%=      5-min Rain = 0
KAI1 201730Z 21005KT 34/15 A2985 RMK A01 T03400151  RH  032%=      5-min Rain = 0
KAI1 201731Z 25005KT 34/15 A2985 RMK A01 T03420150  RH  032%=      5-min Rain = 0
KAI1 201732Z 25007KT 34/12 A2985 RMK A01 T03440123  RH  026%=      5-min Rain = 0
KAI1 201733Z 27006KT 35/12 A2985 RMK A01 T03470123  RH  026%=      5-min Rain = 0
KAI1 201734Z 24005KT 35/13 A2985 RMK A01 T03490128  RH  026%=      5-min Rain = 0
KAI1 201735Z 21005KT 35/12 A2985 RMK A01 T03490123  RH  025%=      5-min Rain = 0
KAI1 201736Z 22008KT 35/13 A2985 RMK A01 T03500126  RH  026%=      5-min Rain = 0
KAI1 201737Z 23007KT 35/13 A2985 RMK A01 T03490129  RH  027%=      5-min Rain = 0
KAI1 201738Z 22005KT 35/13 A2985 RMK A01 T03470133  RH  028%=      5-min Rain = 0
KAI1 201739Z 21006KT 35/12 A2985 RMK A01 T03470120  RH  025%=      5-min Rain = 0
KAI1 201740Z 21007KT 35/12 A2985 RMK A01 T03470123  RH  026%=      5-min Rain = 0
KAI1 201741Z 20007KT 35/12 A2985 RMK A01 T03470118  RH  025%=      5-min Rain = 0
KAI1 201742Z 21007KT 35/12 A2985 RMK A01 T03460124  RH  026%=      5-min Rain = 0
KAI1 201743Z 22007KT 35/13 A2985 RMK A01 T03470130  RH  027%=      5-min Rain = 0
KAI1 201744Z 21009KT 35/12 A2985 RMK A01 T03500121  RH  025%=      5-min Rain = 0
KAI1 201745Z 21008KT 35/11 A2985 RMK A01 T03510110  RH  023%=      5-min Rain = 0
KAI1 201746Z 21008KT 35/11 A2985 RMK A01 T03510111  RH  023%=      5-min Rain = 0
KAI1 201747Z 22009KT 35/12 A2985 RMK A01 T03500117  RH  025%=      5-min Rain = 0
KAI1 201748Z 22007KT 35/11 A2985 RMK A01 T03500114  RH  024%=      5-min Rain = 0
KAI1 201749Z 22008KT 35/11 A2985 RMK A01 T03500106  RH  023%=      5-min Rain = 0
KAI1 201750Z 22006KT 35/11 A2985 RMK A01 T03490106  RH  023%=      5-min Rain = 0
KAI1 201751Z 22007KT 35/11 A2985 RMK A01 T03490109  RH  023%=      5-min Rain = 0
KAI1 201752Z 23008KT 35/10 A2985 RMK A01 T03500104  RH  022%=      5-min Rain = 0
KAI1 201753Z 24006KT 35/10 A2985 RMK A01 T03510099  RH  021%=      5-min Rain = 0
KAI1 201754Z 22007KT 35/11 A2985 RMK A01 T03520107  RH  023%=      5-min Rain = 0
KAI1 201755Z 21006KT 35/10 A2985 RMK A01 T03520101  RH  022%=      5-min Rain = 0
KAI1 201756Z 23006KT 35/11 A2985 RMK A01 T03520107  RH  023%=      5-min Rain = 0
KAI1 201757Z 26005KT 35/10 A2985 RMK A01 T03530102  RH  022%=      5-min Rain = 0
KAI1 201758Z 24003KT 35/10 A2985 RMK A01 T03520096  RH  021%=      5-min Rain = 0
KAI1 201759Z 23008KT 35/10 A2985 RMK A01 T03510104  RH  022%=      5-min Rain = 0
KAI1 201800Z 22006KT 35/12 A2985 RMK A01 T03510120  RH  025%=      5-min Rain = 0
KAI1 201801Z 21006KT 35/11 A2985 RMK A01 T03530113  RH  023%=      5-min Rain = 0
KAI1 201802Z 21006KT 36/12 A2985 RMK A01 T03570117  RH  024%=      5-min Rain = 0
KAI1 201803Z 22008KT 36/12 A2985 RMK A01 T03570115  RH  023%=      5-min Rain = 0
KAI1 201804Z 22005KT 36/12 A2985 RMK A01 T03550115  RH  024%=      5-min Rain = 0
KAI1 201805Z 20007G14KT 35/11 A2985 RMK A01 T03540113  RH  023%=      5-min Rain = 0
KAI1 201806Z 26007KT 36/10 A2985 RMK A01 T03560100  RH  021%=      5-min Rain = 0
KAI1 201807Z 24006KT 36/09 A2985 RMK A01 T03560085  RH  019%=      5-min Rain = 0
KAI1 201808Z 22006KT 36/10 A2985 RMK A01 T03570101  RH  021%=      5-min Rain = 0
KAI1 201809Z 23008KT 36/10 A2985 RMK A01 T03600101  RH  021%=      5-min Rain = 0
KAI1 201810Z 21008KT 36/09 A2985 RMK A01 T03590094  RH  020%=      5-min Rain = 0
KAI1 201811Z 26007KT 36/11 A2985 RMK A01 T03580107  RH  022%=      5-min Rain = 0
KAI1 201812Z 24006G11KT 36/09 A2985 RMK A01 T03590090  RH  020%=      5-min Rain = 0
KAI1 201813Z 23009KT 36/06 A2985 RMK A01 T03580064  RH  016%=      5-min Rain = 0
KAI1 201814Z 25010KT 36/07 A2985 RMK A01 T03590074  RH  017%=      5-min Rain = 0
KAI1 201815Z 25008KT 36/08 A2985 RMK A01 T03590079  RH  018%=      5-min Rain = 0
KAI1 201816Z 23005KT 36/09 A2985 RMK A01 T03570088  RH  019%=      5-min Rain = 0
KAI1 201817Z 21005KT 36/09 A2985 RMK A01 T03570094  RH  020%=      5-min Rain = 0
KAI1 201818Z 23009KT 36/10 A2985 RMK A01 T03580098  RH  021%=      5-min Rain = 0
KAI1 201819Z 26010KT 36/08 A2985 RMK A01 T03600079  RH  018%=      5-min Rain = 0
KAI1 201820Z 23007KT 36/08 A2985 RMK A01 T03590084  RH  019%=      5-min Rain = 0
KAI1 201821Z 21007KT 36/09 A2985 RMK A01 T03590094  RH  020%=      5-min Rain = 0
KAI1 201822Z 20007KT 36/09 A2985 RMK A01 T03590087  RH  019%=      5-min Rain = 0
KAI1 201823Z 23007KT 36/09 A2985 RMK A01 T03590091  RH  020%=      5-min Rain = 0
KAI1 201824Z 24007KT 36/09 A2985 RMK A01 T03590088  RH  019%=      5-min Rain = 0
KAI1 201825Z 25005KT 36/08 A2985 RMK A01 T03580076  RH  018%=      5-min Rain = 0
KAI1 201826Z 22006KT 36/08 A2985 RMK A01 T03570084  RH  019%=      5-min Rain = 0
KAI1 201827Z 22009KT 36/08 A2985 RMK A01 T03590081  RH  018%=      5-min Rain = 0
KAI1 201828Z 21007KT 36/07 A2985 RMK A01 T03590070  RH  017%=      5-min Rain = 0
KAI1 201829Z 21007KT 36/08 A2985 RMK A01 T03590081  RH  018%=      5-min Rain = 0
KAI1 201830Z 22007KT 36/08 A2985 RMK A01 T03600077  RH  018%=      5-min Rain = 0
KAI1 201831Z 23006KT 36/10 A2985 RMK A01 T03600102  RH  021%=      5-min Rain = 0
KAI1 201832Z 27007KT 36/10 A2985 RMK A01 T03620095  RH  020%=      5-min Rain = 0
KAI1 201833Z 26005KT 36/10 A2985 RMK A01 T03640099  RH  020%=      5-min Rain = 0
KAI1 201834Z 23009KT 36/08 A2985 RMK A01 T03640084  RH  018%=      5-min Rain = 0
KAI1 201835Z 23010KT 36/07 A2985 RMK A01 T03630068  RH  016%=      5-min Rain = 0
KAI1 201836Z 24008KT 36/08 A2985 RMK A01 T03620081  RH  018%=      5-min Rain = 0
KAI1 201837Z 23007KT 36/07 A2985 RMK A01 T03610066  RH  016%=      5-min Rain = 0
KAI1 201838Z 24007KT 36/08 A2985 RMK A01 T03600083  RH  018%=      5-min Rain = 0
KAI1 201839Z 24009KT 36/08 A2984 RMK A01 T03610081  RH  018%=      5-min Rain = 0
KAI1 201840Z 23009KT 36/08 A2984 RMK A01 T03610084  RH  018%=      5-min Rain = 0
KAI1 201841Z 24007KT 36/08 A2984 RMK A01 T03600075  RH  017%=      5-min Rain = 0
KAI1 201842Z 24007KT 36/07 A2984 RMK A01 T03590074  RH  017%=      5-min Rain = 0
KAI1 201843Z 23008KT 36/08 A2984 RMK A01 T03580080  RH  018%=      5-min Rain = 0
KAI1 201844Z 23010KT 36/09 A2984 RMK A01 T03590088  RH  019%=      5-min Rain = 0
KAI1 201845Z 22006KT 36/09 A2984 RMK A01 T03600090  RH  019%=      5-min Rain = 0
KAI1 201846Z 20006G11KT 36/09 A2984 RMK A01 T03620093  RH  019%=      5-min Rain = 0
KAI1 201847Z 21010KT 36/09 A2984 RMK A01 T03630088  RH  019%=      5-min Rain = 0
KAI1 201848Z 22009KT 37/09 A2984 RMK A01 T03650085  RH  018%=      5-min Rain = 0
KAI1 201849Z 22008KT 37/06 A2984 RMK A01 T03670061  RH  015%=      5-min Rain = 0
KAI1 201850Z 22007KT 37/07 A2984 RMK A01 T03660074  RH  017%=      5-min Rain = 0
KAI1 201851Z 21010KT 37/08 A2984 RMK A01 T03650084  RH  018%=      5-min Rain = 0
KAI1 201852Z 22010KT 37/07 A2984 RMK A01 T03660073  RH  017%=      5-min Rain = 0
KAI1 201853Z 23010KT 37/09 A2984 RMK A01 T03680087  RH  018%=      5-min Rain = 0
KAI1 201854Z 24008KT 37/09 A2984 RMK A01 T03680087  RH  018%=      5-min Rain = 0
KAI1 201855Z 24008KT 37/09 A2984 RMK A01 T03660089  RH  019%=      5-min Rain = 0
KAI1 201856Z 26003KT 37/08 A2984 RMK A01 T03650079  RH  017%=      5-min Rain = 0
KAI1 201857Z 23004KT 37/08 A2984 RMK A01 T03650078  RH  017%=      5-min Rain = 0
KAI1 201858Z 22006KT 37/10 A2984 RMK A01 T03650096  RH  020%=      5-min Rain = 0
KAI1 201859Z 23005KT 37/10 A2984 RMK A01 T03670101  RH  020%=      5-min Rain = 0
KAI1 201900Z 21009KT 37/08 A2984 RMK A01 T03700083  RH  017%=      5-min Rain = 0
KAI1 201901Z 22010KT 37/05 A2984 RMK A01 T03710054  RH  014%=      5-min Rain = 0
KAI1 201902Z 23008KT 37/04 A2984 RMK A01 T03690037  RH  013%=      5-min Rain = 0
KAI1 201903Z 20007KT 37/05 A2984 RMK A01 T03670051  RH  014%=      5-min Rain = 0
KAI1 201904Z 20010KT 37/08 A2984 RMK A01 T03660078  RH  017%=      5-min Rain = 0
KAI1 201905Z 20014KT 37/08 A2983 RMK A01 T03680079  RH  017%=      5-min Rain = 0
KAI1 201906Z 20012KT 37/07 A2984 RMK A01 T03670073  RH  017%=      5-min Rain = 0
KAI1 201907Z 20010KT 37/08 A2984 RMK A01 T03650077  RH  017%=      5-min Rain = 0
KAI1 201908Z 21009KT 37/09 A2984 RMK A01 T03670088  RH  018%=      5-min Rain = 0
KAI1 201909Z 19012KT 37/08 A2984 RMK A01 T03670082  RH  018%=      5-min Rain = 0
KAI1 201910Z 20011KT 37/07 A2984 RMK A01 T03690073  RH  016%=      5-min Rain = 0
KAI1 201911Z 20010KT 37/07 A2983 RMK A01 T03690071  RH  016%=      5-min Rain = 0
KAI1 201912Z 20009KT 37/07 A2983 RMK A01 T03680069  RH  016%=      5-min Rain = 0
KAI1 201913Z 20010KT 37/08 A2983 RMK A01 T03670077  RH  017%=      5-min Rain = 0
KAI1 201914Z 22006KT 37/08 A2983 RMK A01 T03650080  RH  018%=      5-min Rain = 0
KAI1 201915Z 21007KT 37/08 A2983 RMK A01 T03650081  RH  018%=      5-min Rain = 0
KAI1 201916Z 21011KT 37/10 A2983 RMK A01 T03650096  RH  020%=      5-min Rain = 0
KAI1 201917Z 21010KT 37/09 A2983 RMK A01 T03670088  RH  018%=      5-min Rain = 0
KAI1 201918Z 22007KT 37/09 A2983 RMK A01 T03670085  RH  018%=      5-min Rain = 0
KAI1 201919Z 22008KT 37/10 A2983 RMK A01 T03670095  RH  019%=      5-min Rain = 0
KAI1 201920Z 20011KT 37/10 A2983 RMK A01 T03690096  RH  019%=      5-min Rain = 0
KAI1 201921Z 21009KT 37/09 A2983 RMK A01 T03690087  RH  018%=      5-min Rain = 0
KAI1 201922Z 22009KT 37/10 A2983 RMK A01 T03680103  RH  020%=      5-min Rain = 0
KAI1 201923Z 22008KT 37/09 A2983 RMK A01 T03680090  RH  018%=      5-min Rain = 0
KAI1 201924Z 21009KT 37/09 A2983 RMK A01 T03670085  RH  018%=      5-min Rain = 0
KAI1 201925Z 21012KT 37/10 A2983 RMK A01 T03680096  RH  019%=      5-min Rain = 0
KAI1 201926Z 20011KT 37/10 A2983 RMK A01 T03690095  RH  019%=      5-min Rain = 0
KAI1 201927Z 19008KT 37/08 A2983 RMK A01 T03670081  RH  017%=      5-min Rain = 0
KAI1 201928Z 18008KT 37/08 A2983 RMK A01 T03650079  RH  017%=      5-min Rain = 0
KAI1 201929Z 19007KT 37/08 A2983 RMK A01 T03650077  RH  017%=      5-min Rain = 0
KAI1 201930Z 22008KT 37/10 A2983 RMK A01 T03650097  RH  020%=      5-min Rain = 0
KAI1 201931Z 23012G17KT 37/09 A2983 RMK A01 T03680085  RH  018%=      5-min Rain = 0
KAI1 201932Z 24014KT 37/08 A2983 RMK A01 T03690075  RH  017%=      5-min Rain = 0
KAI1 201933Z 25009KT 37/07 A2983 RMK A01 T03660071  RH  016%=      5-min Rain = 0
KAI1 201934Z 24009G14KT 36/08 A2983 RMK A01 T03640080  RH  018%=      5-min Rain = 0
KAI1 201935Z 23012KT 37/10 A2983 RMK A01 T03660096  RH  019%=      5-min Rain = 0
KAI1 201936Z 24014KT 37/09 A2983 RMK A01 T03700093  RH  019%=      5-min Rain = 0
KAI1 201937Z 21010KT 37/10 A2983 RMK A01 T03680097  RH  019%=      5-min Rain = 0
KAI1 201938Z 20012KT 37/10 A2983 RMK A01 T03710095  RH  019%=      5-min Rain = 0
KAI1 201939Z 20010KT 37/06 A2983 RMK A01 T03720063  RH  015%=      5-min Rain = 0
KAI1 201940Z 21008KT 37/08 A2983 RMK A01 T03710080  RH  017%=      5-min Rain = 0
KAI1 201941Z 19008KT 37/08 A2983 RMK A01 T03730080  RH  017%=      5-min Rain = 0
KAI1 201942Z 19006KT 37/07 A2983 RMK A01 T03730074  RH  016%=      5-min Rain = 0
KAI1 201943Z 17007KT 37/07 A2983 RMK A01 T03720073  RH  016%=      5-min Rain = 0
KAI1 201944Z 19004KT 37/07 A2983 RMK A01 T03720066  RH  015%=      5-min Rain = 0
KAI1 201945Z 20010KT 37/08 A2983 RMK A01 T03710079  RH  017%=      5-min Rain = 0
KAI1 201946Z 17013KT 37/07 A2983 RMK A01 T03730072  RH  016%=      5-min Rain = 0
KAI1 201947Z 19015KT 38/08 A2983 RMK A01 T03800078  RH  016%=      5-min Rain = 0
KAI1 201948Z 20014KT 38/07 A2983 RMK A01 T03790072  RH  015%=      5-min Rain = 0
KAI1 201949Z 22010KT 38/09 A2983 RMK A01 T03760086  RH  017%=      5-min Rain = 0
KAI1 201950Z 22011KT 37/09 A2983 RMK A01 T03740087  RH  017%=      5-min Rain = 0
KAI1 201951Z 22013KT 37/08 A2983 RMK A01 T03720078  RH  017%=      5-min Rain = 0
KAI1 201952Z 23012KT 37/08 A2983 RMK A01 T03710078  RH  017%=      5-min Rain = 0
KAI1 201953Z 23014KT 37/08 A2983 RMK A01 T03720077  RH  017%=      5-min Rain = 0
KAI1 201954Z 23012KT 37/07 A2983 RMK A01 T03710072  RH  016%=      5-min Rain = 0
KAI1 201955Z 24014KT 37/07 A2983 RMK A01 T03700074  RH  016%=      5-min Rain = 0
KAI1 201956Z 26010KT 37/06 A2983 RMK A01 T03690064  RH  015%=      5-min Rain = 0
KAI1 201957Z 28005KT 37/06 A2982 RMK A01 T03650061  RH  015%=      5-min Rain = 0
KAI1 201958Z 25003KT 37/07 A2982 RMK A01 T03660068  RH  016%=      5-min Rain = 0
KAI1 201959Z 22005KT 37/08 A2982 RMK A01 T03680076  RH  017%=      5-min Rain = 0
KAI1 202000Z 21007KT 37/08 A2982 RMK A01 T03710077  RH  017%=      5-min Rain = 0
KAI1 202001Z 21008KT 37/08 A2982 RMK A01 T03720082  RH  017%=      5-min Rain = 0
KAI1 202002Z 20006KT 37/09 A2982 RMK A01 T03740089  RH  018%=      5-min Rain = 0
KAI1 202003Z 19012KT 38/08 A2982 RMK A01 T03750081  RH  017%=      5-min Rain = 0
KAI1 202004Z 20011KT 38/08 A2982 RMK A01 T03760077  RH  016%=      5-min Rain = 0
KAI1 202005Z 21011KT 38/08 A2982 RMK A01 T03760082  RH  017%=      5-min Rain = 0
KAI1 202006Z 21010KT 38/08 A2982 RMK A01 T03750084  RH  017%=      5-min Rain = 0
KAI1 202007Z 21008KT 38/09 A2982 RMK A01 T03750085  RH  017%=      5-min Rain = 0
KAI1 202008Z 20013G20KT 38/09 A2982 RMK A01 T03770090  RH  018%=      5-min Rain = 0
KAI1 202009Z 21017KT 38/08 A2982 RMK A01 T03780082  RH  017%=      5-min Rain = 0
KAI1 202010Z 21014KT 38/07 A2982 RMK A01 T03780072  RH  015%=      5-min Rain = 0
KAI1 202011Z 21011KT 38/06 A2982 RMK A01 T03750063  RH  015%=      5-min Rain = 0
KAI1 202012Z 21009KT 37/07 A2982 RMK A01 T03720072  RH  016%=      5-min Rain = 0
KAI1 202013Z 20006KT 37/07 A2982 RMK A01 T03710067  RH  016%=      5-min Rain = 0
KAI1 202014Z 22006KT 37/07 A2982 RMK A01 T03710073  RH  016%=      5-min Rain = 0
KAI1 202015Z 22007KT 37/07 A2982 RMK A01 T03710069  RH  016%=      5-min Rain = 0
KAI1 202016Z 23005KT 37/07 A2982 RMK A01 T03710068  RH  016%=      5-min Rain = 0
KAI1 202017Z 21007KT 37/08 A2982 RMK A01 T03710076  RH  016%=      5-min Rain = 0
KAI1 202018Z 22012KT 37/09 A2982 RMK A01 T03730086  RH  018%=      5-min Rain = 0
KAI1 202019Z 22014KT 38/07 A2982 RMK A01 T03750073  RH  016%=      5-min Rain = 0
KAI1 202020Z 21011KT 37/07 A2982 RMK A01 T03730072  RH  016%=      5-min Rain = 0
KAI1 202021Z 23011KT 37/08 A2982 RMK A01 T03710076  RH  017%=      5-min Rain = 0
KAI1 202022Z 22008KT 37/07 A2982 RMK A01 T03730073  RH  016%=      5-min Rain = 0
KAI1 202023Z 22012G17KT 38/08 A2982 RMK A01 T03750082  RH  017%=      5-min Rain = 0
KAI1 202024Z 23015KT 38/08 A2981 RMK A01 T03760082  RH  017%=      5-min Rain = 0
KAI1 202025Z 23018KT 38/07 A2981 RMK A01 T03760073  RH  016%=      5-min Rain = 0
KAI1 202026Z 20014G19KT 38/07 A2981 RMK A01 T03750073  RH  016%=      5-min Rain = 0
KAI1 202027Z 22014KT 38/08 A2982 RMK A01 T03770083  RH  017%=      5-min Rain = 0
KAI1 202028Z 23012KT 38/07 A2982 RMK A01 T03770070  RH  015%=      5-min Rain = 0
KAI1 202029Z 22008KT 38/07 A2982 RMK A01 T03750067  RH  015%=      5-min Rain = 0
KAI1 202030Z 22009KT 37/07 A2981 RMK A01 T03740071  RH  016%=      5-min Rain = 0
KAI1 202031Z 22008KT 37/07 A2981 RMK A01 T03740067  RH  015%=      5-min Rain = 0
KAI1 202032Z 23006KT 37/06 A2981 RMK A01 T03740057  RH  014%=      5-min Rain = 0
KAI1 202033Z 21004KT 37/05 A2981 RMK A01 T03740045  RH  013%=      5-min Rain = 0
KAI1 202034Z 20005KT 37/05 A2981 RMK A01 T03730053  RH  014%=      5-min Rain = 0
KAI1 202035Z 25003KT 37/07 A2981 RMK A01 T03740066  RH  015%=      5-min Rain = 0
KAI1 202036Z 23011G16KT 38/07 A2981 RMK A01 T03760069  RH  015%=      5-min Rain = 0
KAI1 202037Z 20010KT 38/07 A2981 RMK A01 T03770066  RH  015%=      5-min Rain = 0
KAI1 202038Z 20011KT 38/06 A2981 RMK A01 T03780062  RH  014%=      5-min Rain = 0
KAI1 202039Z 21014KT 38/08 A2981 RMK A01 T03780076  RH  016%=      5-min Rain = 0
KAI1 202040Z 20016KT 38/06 A2981 RMK A01 T03780060  RH  014%=      5-min Rain = 0
KAI1 202041Z 20016KT 38/07 A2981 RMK A01 T03780068  RH  015%=      5-min Rain = 0
KAI1 202042Z 20012KT 38/05 A2981 RMK A01 T03780053  RH  014%=      5-min Rain = 0
KAI1 202043Z 21010KT 38/05 A2981 RMK A01 T03760054  RH  014%=      5-min Rain = 0
KAI1 202044Z 21008KT 38/07 A2981 RMK A01 T03750071  RH  016%=      5-min Rain = 0
KAI1 202045Z 21007KT 38/06 A2981 RMK A01 T03750063  RH  015%=      5-min Rain = 0
KAI1 202046Z 20010KT 38/07 A2981 RMK A01 T03750065  RH  015%=      5-min Rain = 0
KAI1 202047Z 19009KT 38/04 A2981 RMK A01 T03760043  RH  013%=      5-min Rain = 0
KAI1 202048Z 21010KT 38/06 A2981 RMK A01 T03760062  RH  015%=      5-min Rain = 0
KAI1 202049Z 19011KT 38/07 A2981 RMK A01 T03770067  RH  015%=      5-min Rain = 0
KAI1 202050Z 20011KT 38/05 A2981 RMK A01 T03790048  RH  013%=      5-min Rain = 0
KAI1 202051Z 19009KT 38/05 A2981 RMK A01 T03760045  RH  013%=      5-min Rain = 0
KAI1 202052Z 20006KT 38/04 A2981 RMK A01 T03760044  RH  013%=      5-min Rain = 0
KAI1 202053Z 20007KT 38/06 A2981 RMK A01 T03780057  RH  014%=      5-min Rain = 0
KAI1 202054Z 21008KT 38/05 A2981 RMK A01 T03790053  RH  013%=      5-min Rain = 0
KAI1 202055Z 25007KT 38/05 A2981 RMK A01 T03800053  RH  013%=      5-min Rain = 0
KAI1 202056Z 22006KT 38/06 A2981 RMK A01 T03790064  RH  015%=      5-min Rain = 0
KAI1 202057Z 23006KT 38/06 A298 RMK A01 T03790059  RH  014%=      5-min Rain = 0
KAI1 202058Z 20008KT 38/06 A298 RMK A01 T03790061  RH  014%=      5-min Rain = 0
KAI1 202059Z 19012KT 38/05 A298 RMK A01 T03780045  RH  013%=      5-min Rain = 0
KAI1 202100Z 18009KT 38/03 A298 RMK A01 T03770034  RH  012%=      5-min Rain = 0
KAI1 202101Z 19009KT 38/04 A298 RMK A01 T03760039  RH  012%=      5-min Rain = 0
KAI1 202102Z 19007KT 38/04 A298 RMK A01 T03750041  RH  013%=      5-min Rain = 0
KAI1 202103Z 18007KT 38/04 A298 RMK A01 T03750039  RH  013%=      5-min Rain = 0
KAI1 202104Z 16004KT 38/04 A298 RMK A01 T03750038  RH  012%=      5-min Rain = 0
KAI1 202105Z 23003KT 38/05 A298 RMK A01 T03750050  RH  014%=      5-min Rain = 0
KAI1 202106Z 24004KT 38/05 A298 RMK A01 T03760046  RH  013%=      5-min Rain = 0
KAI1 202107Z 26009KT 38/06 A298 RMK A01 T03760060  RH  014%=      5-min Rain = 0
KAI1 202108Z 26009KT 38/05 A298 RMK A01 T03770050  RH  013%=      5-min Rain = 0
KAI1 202109Z 24008KT 38/06 A298 RMK A01 T03770058  RH  014%=      5-min Rain = 0
KAI1 202110Z 26006KT 38/04 A298 RMK A01 T03760042  RH  013%=      5-min Rain = 0
KAI1 202111Z 24006KT 38/05 A298 RMK A01 T03760054  RH  014%=      5-min Rain = 0
KAI1 202112Z 21005KT 38/07 A298 RMK A01 T03770072  RH  016%=      5-min Rain = 0
KAI1 202113Z 21006KT 38/05 A298 RMK A01 T03800050  RH  013%=      5-min Rain = 0
KAI1 202114Z 22008G13KT 38/05 A298 RMK A01 T03810053  RH  013%=      5-min Rain = 0
KAI1 202115Z 20012KT 38/05 A298 RMK A01 T03800054  RH  014%=      5-min Rain = 0
KAI1 202116Z 19012KT 38/05 A298 RMK A01 T03790051  RH  013%=      5-min Rain = 0
KAI1 202117Z 19012KT 38/05 A2979 RMK A01 T03790051  RH  013%=      5-min Rain = 0
KAI1 202118Z 19012KT 38/05 A2979 RMK A01 T03810047  RH  013%=      5-min Rain = 0
KAI1 202119Z 21013KT 38/07 A2979 RMK A01 T03830066  RH  015%=      5-min Rain = 0
KAI1 202120Z 21012KT 38/06 A298 RMK A01 T03810062  RH  014%=      5-min Rain = 0
KAI1 202121Z 22009KT 38/07 A298 RMK A01 T03790068  RH  015%=      5-min Rain = 0
KAI1 202122Z 21011KT 38/08 A2979 RMK A01 T03790075  RH  016%=      5-min Rain = 0
KAI1 202123Z 20015KT 38/07 A2979 RMK A01 T03790067  RH  015%=      5-min Rain = 0
KAI1 202124Z 20018KT 38/06 A2979 RMK A01 T03790064  RH  015%=      5-min Rain = 0
KAI1 202125Z 20014KT 38/06 A2979 RMK A01 T03780056  RH  014%=      5-min Rain = 0
KAI1 202126Z 19013KT 38/06 A2979 RMK A01 T03770059  RH  014%=      5-min Rain = 0
KAI1 202127Z 20016KT 38/06 A2979 RMK A01 T03830062  RH  014%=      5-min Rain = 0
KAI1 202128Z 20013KT 38/07 A2979 RMK A01 T03820066  RH  015%=      5-min Rain = 0
KAI1 202129Z 18012KT 38/06 A2979 RMK A01 T03820062  RH  014%=      5-min Rain = 0
KAI1 202130Z 18013KT 38/06 A2979 RMK A01 T03830055  RH  013%=      5-min Rain = 0
KAI1 202131Z 19013KT 38/05 A2979 RMK A01 T03820053  RH  013%=      5-min Rain = 0
KAI1 202132Z 19011KT 38/05 A2979 RMK A01 T03790050  RH  013%=      5-min Rain = 0
KAI1 202133Z 19013KT 38/06 A2979 RMK A01 T03790059  RH  014%=      5-min Rain = 0
KAI1 202134Z 18015KT 38/05 A2979 RMK A01 T03790053  RH  014%=      5-min Rain = 0
KAI1 202135Z 18013KT 38/04 A2979 RMK A01 T03780043  RH  013%=      5-min Rain = 0
KAI1 202136Z 18014KT 38/05 A2979 RMK A01 T03760046  RH  013%=      5-min Rain = 0
KAI1 202137Z 18013KT 38/05 A2979 RMK A01 T03750046  RH  013%=      5-min Rain = 0
KAI1 202138Z 19011G16KT 37/05 A2979 RMK A01 T03740046  RH  013%=      5-min Rain = 0
KAI1 202139Z 18008KT 37/05 A2979 RMK A01 T03740049  RH  013%=      5-min Rain = 0
KAI1 202140Z 18012KT 38/05 A2979 RMK A01 T03780050  RH  013%=      5-min Rain = 0
KAI1 202141Z 17012KT 38/05 A2979 RMK A01 T03820047  RH  013%=      5-min Rain = 0
KAI1 202142Z 16011KT 38/05 A2979 RMK A01 T03830047  RH  013%=      5-min Rain = 0
KAI1 202143Z 16011KT 38/05 A2979 RMK A01 T03840046  RH  013%=      5-min Rain = 0
KAI1 202144Z 17008KT 39/05 A2979 RMK A01 T03850049  RH  013%=      5-min Rain = 0
KAI1 202145Z 19008KT 39/06 A2979 RMK A01 T03870058  RH  013%=      5-min Rain = 0
KAI1 202146Z 19015KT 39/06 A2978 RMK A01 T03880061  RH  014%=      5-min Rain = 0
KAI1 202147Z 19014KT 39/05 A2978 RMK A01 T03850054  RH  013%=      5-min Rain = 0
KAI1 202148Z 19016KT 38/05 A2978 RMK A01 T03830054  RH  013%=      5-min Rain = 0
KAI1 202149Z 18013KT 38/05 A2978 RMK A01 T03820045  RH  013%=      5-min Rain = 0
KAI1 202150Z 18014KT 38/05 A2978 RMK A01 T03840054  RH  013%=      5-min Rain = 0
KAI1 202151Z 16013KT 39/04 A2978 RMK A01 T03850044  RH  012%=      5-min Rain = 0
KAI1 202152Z 18013KT 39/04 A2978 RMK A01 T03850041  RH  012%=      5-min Rain = 0
KAI1 202153Z 20015KT 38/05 A2978 RMK A01 T03840052  RH  013%=      5-min Rain = 0
KAI1 202154Z 20016KT 38/06 A2978 RMK A01 T03820062  RH  014%=      5-min Rain = 0
KAI1 202155Z 21014KT 38/05 A2979 RMK A01 T03790054  RH  014%=      5-min Rain = 0
KAI1 202156Z 21011KT 38/06 A2979 RMK A01 T03760063  RH  015%=      5-min Rain = 0
KAI1 202157Z 19010KT 38/07 A2979 RMK A01 T03750068  RH  015%=      5-min Rain = 0
KAI1 202158Z 18011KT 38/04 A2979 RMK A01 T03760038  RH  012%=      5-min Rain = 0
KAI1 202159Z 19012KT 38/04 A2978 RMK A01 T03780042  RH  013%=      5-min Rain = 0
KAI1 202200Z 18009KT 38/04 A2978 RMK A01 T03770042  RH  013%=      5-min Rain = 0
KAI1 202201Z 18009KT 38/04 A2978 RMK A01 T03780037  RH  012%=      5-min Rain = 0
KAI1 202202Z 20009KT 38/06 A2978 RMK A01 T03790064  RH  015%=      5-min Rain = 0
KAI1 202203Z 20010KT 38/06 A2978 RMK A01 T03800055  RH  014%=      5-min Rain = 0
KAI1 202204Z 19012KT 38/05 A2978 RMK A01 T03780052  RH  013%=      5-min Rain = 0
KAI1 202205Z 20016KT 38/06 A2978 RMK A01 T03780056  RH  014%=      5-min Rain = 0
KAI1 202206Z 19015KT 38/06 A2978 RMK A01 T03770055  RH  014%=      5-min Rain = 0
KAI1 202207Z 19014KT 38/05 A2978 RMK A01 T03780050  RH  013%=      5-min Rain = 0
KAI1 202208Z 21013KT 38/06 A2978 RMK A01 T03780061  RH  014%=      5-min Rain = 0
KAI1 202209Z 22012KT 38/07 A2978 RMK A01 T03770068  RH  015%=      5-min Rain = 0
KAI1 202210Z 21011KT 38/07 A2978 RMK A01 T03760071  RH  016%=      5-min Rain = 0
KAI1 202211Z 21009KT 38/07 A2978 RMK A01 T03750065  RH  015%=      5-min Rain = 0
KAI1 202212Z 20012KT 37/06 A2978 RMK A01 T03740064  RH  015%=      5-min Rain = 0
KAI1 202213Z 22011KT 37/07 A2978 RMK A01 T03740071  RH  016%=      5-min Rain = 0
KAI1 202214Z 21012KT 37/06 A2978 RMK A01 T03740058  RH  014%=      5-min Rain = 0
KAI1 202215Z 19012KT 37/06 A2978 RMK A01 T03740064  RH  015%=      5-min Rain = 0
KAI1 202216Z 19011KT 37/05 A2978 RMK A01 T03740053  RH  014%=      5-min Rain = 0
KAI1 202217Z 19010KT 38/05 A2978 RMK A01 T03770052  RH  014%=      5-min Rain = 0
KAI1 202218Z 20009KT 38/07 A2978 RMK A01 T03790074  RH  016%=      5-min Rain = 0
KAI1 202219Z 20011KT 38/06 A2978 RMK A01 T03790061  RH  014%=      5-min Rain = 0
KAI1 202220Z 18014KT 38/05 A2978 RMK A01 T03780049  RH  013%=      5-min Rain = 0
KAI1 202221Z 18011KT 38/03 A2978 RMK A01 T03790034  RH  012%=      5-min Rain = 0
KAI1 202222Z 20012KT 38/04 A2978 RMK A01 T03800043  RH  013%=      5-min Rain = 0
KAI1 202223Z 19011KT 38/04 A2978 RMK A01 T03800039  RH  012%=      5-min Rain = 0
KAI1 202224Z 20010KT 38/04 A2978 RMK A01 T03790042  RH  013%=      5-min Rain = 0
KAI1 202225Z 20009KT 38/04 A2978 RMK A01 T03770037  RH  012%=      5-min Rain = 0
KAI1 202226Z 19013KT 38/05 A2978 RMK A01 T03770049  RH  013%=      5-min Rain = 0
KAI1 202227Z 20013KT 38/05 A2978 RMK A01 T03770045  RH  013%=      5-min Rain = 0
KAI1 202228Z 21010KT 38/06 A2978 RMK A01 T03760058  RH  014%=      5-min Rain = 0
KAI1 202229Z 21009KT 38/08 A2978 RMK A01 T03760077  RH  016%=      5-min Rain = 0
KAI1 202230Z 20011KT 38/07 A2978 RMK A01 T03760065  RH  015%=      5-min Rain = 0
KAI1 202231Z 19014KT 38/05 A2978 RMK A01 T03750053  RH  014%=      5-min Rain = 0
KAI1 202232Z 22013KT 38/07 A2978 RMK A01 T03760068  RH  015%=      5-min Rain = 0
KAI1 202233Z 21014KT 38/05 A2978 RMK A01 T03750054  RH  014%=      5-min Rain = 0
KAI1 202234Z 22012KT 37/05 A2978 RMK A01 T03720049  RH  014%=      5-min Rain = 0
KAI1 202235Z 22013KT 37/06 A2978 RMK A01 T03720059  RH  015%=      5-min Rain = 0
KAI1 202236Z 22011KT 37/05 A2978 RMK A01 T03720047  RH  013%=      5-min Rain = 0
KAI1 202237Z 22011KT 37/05 A2978 RMK A01 T03720053  RH  014%=      5-min Rain = 0
KAI1 202238Z 21009KT 37/05 A2978 RMK A01 T03730050  RH  014%=      5-min Rain = 0
KAI1 202239Z 21009KT 37/06 A2978 RMK A01 T03720060  RH  015%=      5-min Rain = 0
KAI1 202240Z 21008KT 37/06 A2978 RMK A01 T03720056  RH  014%=      5-min Rain = 0
KAI1 202241Z 22009KT 38/07 A2978 RMK A01 T03750065  RH  015%=      5-min Rain = 0
KAI1 202242Z 22012KT 38/06 A2978 RMK A01 T03760055  RH  014%=      5-min Rain = 0
KAI1 202243Z 21010KT 38/06 A2978 RMK A01 T03760055  RH  014%=      5-min Rain = 0
KAI1 202244Z 20009KT 38/07 A2978 RMK A01 T03750072  RH  016%=      5-min Rain = 0
KAI1 202245Z 21013KT 38/06 A2978 RMK A01 T03760056  RH  014%=      5-min Rain = 0
KAI1 202246Z 21011KT 38/05 A2978 RMK A01 T03750046  RH  013%=      5-min Rain = 0
KAI1 202247Z 20009KT 37/06 A2978 RMK A01 T03710055  RH  014%=      5-min Rain = 0
KAI1 202248Z 20014KT 37/06 A2978 RMK A01 T03680056  RH  015%=      5-min Rain = 0
KAI1 202249Z 21012KT 37/05 A2978 RMK A01 T03670052  RH  014%=      5-min Rain = 0
KAI1 202250Z 20016KT 37/05 A2978 RMK A01 T03690054  RH  014%=      5-min Rain = 0
KAI1 202251Z 21013KT 37/05 A2978 RMK A01 T03710049  RH  014%=      5-min Rain = 0
KAI1 202252Z 20012KT 37/06 A2978 RMK A01 T03710056  RH  014%=      5-min Rain = 0
KAI1 202253Z 20014KT 37/06 A2978 RMK A01 T03700058  RH  015%=      5-min Rain = 0
KAI1 202254Z 20014KT 37/05 A2978 RMK A01 T03710046  RH  013%=      5-min Rain = 0
KAI1 202255Z 20013KT 37/05 A2978 RMK A01 T03710049  RH  014%=      5-min Rain = 0
KAI1 202256Z 20014KT 37/05 A2978 RMK A01 T03710047  RH  013%=      5-min Rain = 0
KAI1 202257Z 20013KT 37/05 A2978 RMK A01 T03710052  RH  014%=      5-min Rain = 0
KAI1 202258Z 20013KT 37/05 A2978 RMK A01 T03710051  RH  014%=      5-min Rain = 0
KAI1 202259Z 20011KT 37/06 A2978 RMK A01 T03710056  RH  014%=      5-min Rain = 0
KAI1 202300Z 20011KT 37/06 A2978 RMK A01 T03710061  RH  015%=      5-min Rain = 0
KAI1 202301Z 20012KT 37/05 A2977 RMK A01 T03720049  RH  014%=      5-min Rain = 0
KAI1 202302Z 21012KT 37/05 A2977 RMK A01 T03720046  RH  013%=      5-min Rain = 0
KAI1 202303Z 20011KT 37/05 A2977 RMK A01 T03720052  RH  014%=      5-min Rain = 0
KAI1 202304Z 21010KT 37/06 A2977 RMK A01 T03710060  RH  015%=      5-min Rain = 0
KAI1 202305Z 20013KT 37/07 A2977 RMK A01 T03700074  RH  016%=      5-min Rain = 0
KAI1 202306Z 21015KT 37/07 A2977 RMK A01 T03700069  RH  016%=      5-min Rain = 0
KAI1 202307Z 22013KT 37/07 A2977 RMK A01 T03690069  RH  016%=      5-min Rain = 0
KAI1 202308Z 23014KT 37/07 A2977 RMK A01 T03690068  RH  016%=      5-min Rain = 0
KAI1 202309Z 23014KT 37/05 A2977 RMK A01 T03690053  RH  014%=      5-min Rain = 0
KAI1 202310Z 22013KT 37/05 A2977 RMK A01 T03690051  RH  014%=      5-min Rain = 0
KAI1 202311Z 22013KT 37/07 A2977 RMK A01 T03690065  RH  015%=      5-min Rain = 0
KAI1 202312Z 23015KT 37/06 A2977 RMK A01 T03690062  RH  015%=      5-min Rain = 0
KAI1 202313Z 22015KT 37/06 A2977 RMK A01 T03680058  RH  015%=      5-min Rain = 0
KAI1 202314Z 22016KT 37/06 A2977 RMK A01 T03670061  RH  015%=      5-min Rain = 0
KAI1 202315Z 22013KT 37/07 A2977 RMK A01 T03670067  RH  016%=      5-min Rain = 0
KAI1 202316Z 22016KT 37/06 A2977 RMK A01 T03670064  RH  016%=      5-min Rain = 0
KAI1 202317Z 22016KT 37/05 A2977 RMK A01 T03670053  RH  014%=      5-min Rain = 0
KAI1 202318Z 21016KT 37/06 A2977 RMK A01 T03660056  RH  015%=      5-min Rain = 0
KAI1 202319Z 21016KT 37/06 A2977 RMK A01 T03660058  RH  015%=      5-min Rain = 0
KAI1 202320Z 21015KT 37/05 A2977 RMK A01 T03670052  RH  014%=      5-min Rain = 0
KAI1 202321Z 21014KT 37/06 A2977 RMK A01 T03660064  RH  016%=      5-min Rain = 0
KAI1 202322Z 22015KT 37/06 A2977 RMK A01 T03660061  RH  015%=      5-min Rain = 0
KAI1 202323Z 22014KT 37/06 A2977 RMK A01 T03660059  RH  015%=      5-min Rain = 0
KAI1 202324Z 22013KT 37/06 A2977 RMK A01 T03660064  RH  016%=      5-min Rain = 0
KAI1 202325Z 22013KT 37/07 A2977 RMK A01 T03650065  RH  016%=      5-min Rain = 0
KAI1 202326Z 22012KT 36/07 A2977 RMK A01 T03630070  RH  017%=      5-min Rain = 0
KAI1 202327Z 22012KT 36/06 A2977 RMK A01 T03600063  RH  016%=      5-min Rain = 0
KAI1 202328Z 22013KT 36/06 A2977 RMK A01 T03580057  RH  016%=      5-min Rain = 0
KAI1 202329Z 22014KT 36/05 A2977 RMK A01 T03560047  RH  015%=      5-min Rain = 0
KAI1 202330Z 21011KT 36/05 A2977 RMK A01 T03560050  RH  015%=      5-min Rain = 0
KAI1 202331Z 21011KT 36/06 A2977 RMK A01 T03560061  RH  016%=      5-min Rain = 0
KAI1 202332Z 21012KT 36/06 A2977 RMK A01 T03560059  RH  016%=      5-min Rain = 0
KAI1 202333Z 22010KT 36/06 A2977 RMK A01 T03590058  RH  016%=      5-min Rain = 0
KAI1 202334Z 21011KT 36/06 A2977 RMK A01 T03590060  RH  016%=      5-min Rain = 0
KAI1 202335Z 22010KT 36/06 A2977 RMK A01 T03590061  RH  016%=      5-min Rain = 0
KAI1 202336Z 21010KT 36/07 A2977 RMK A01 T03580068  RH  017%=      5-min Rain = 0
KAI1 202337Z 21011KT 36/07 A2977 RMK A01 T03550070  RH  017%=      5-min Rain = 0
KAI1 202338Z 22013KT 35/06 A2977 RMK A01 T03530063  RH  017%=      5-min Rain = 0
KAI1 202339Z 22013KT 35/05 A2977 RMK A01 T03520054  RH  016%=      5-min Rain = 0
KAI1 202340Z 22013KT 35/05 A2977 RMK A01 T03510054  RH  016%=      5-min Rain = 0
KAI1 202341Z 21012KT 35/05 A2977 RMK A01 T03510052  RH  016%=      5-min Rain = 0
KAI1 202342Z 21011KT 35/06 A2977 RMK A01 T03500060  RH  017%=      5-min Rain = 0
KAI1 202343Z 21010KT 35/07 A2977 RMK A01 T03490065  RH  017%=      5-min Rain = 0
KAI1 202344Z 21010KT 35/07 A2977 RMK A01 T03480068  RH  018%=      5-min Rain = 0
KAI1 202345Z 21010KT 35/07 A2977 RMK A01 T03470073  RH  018%=      5-min Rain = 0
KAI1 202346Z 21010KT 35/07 A2977 RMK A01 T03460069  RH  018%=      5-min Rain = 0
KAI1 202347Z 21009KT 35/07 A2977 RMK A01 T03460074  RH  019%=      5-min Rain = 0
KAI1 202348Z 21010KT 35/07 A2977 RMK A01 T03460072  RH  018%=      5-min Rain = 0
KAI1 202349Z 21009KT 35/08 A2977 RMK A01 T03450075  RH  019%=      5-min Rain = 0
KAI1 202350Z 21009KT 34/08 A2977 RMK A01 T03440078  RH  019%=      5-min Rain = 0
KAI1 202351Z 21009KT 34/08 A2977 RMK A01 T03430078  RH  020%=      5-min Rain = 0
KAI1 202352Z 21009KT 34/08 A2977 RMK A01 T03430081  RH  020%=      5-min Rain = 0
KAI1 202353Z 21008KT 34/08 A2977 RMK A01 T03430084  RH  020%=      5-min Rain = 0
KAI1 202354Z 21008KT 34/09 A2977 RMK A01 T03430087  RH  021%=      5-min Rain = 0
KAI1 202355Z 21008KT 34/09 A2977 RMK A01 T03430089  RH  021%=      5-min Rain = 0
KAI1 202356Z 21008KT 34/09 A2977 RMK A01 T03420091  RH  021%=      5-min Rain = 0
KAI1 202357Z 20008KT 34/09 A2977 RMK A01 T03410093  RH  022%=      5-min Rain = 0
KAI1 202358Z 20007KT 34/09 A2976 RMK A01 T03400093  RH  022%=      5-min Rain = 0
KAI1 202359Z 20006KT 34/10 A2976 RMK A01 T03390099  RH  023%=      5-min Rain = 0
KAI1 210000Z 21006KT 34/10 A2976 RMK A01 T03380104  RH  024%=      5-min Rain = 0
KAI1 210001Z 21006KT 34/11 A2976 RMK A01 T03370109  RH  025%=      5-min Rain = 0
KAI1 210002Z 21006KT 34/11 A2976 RMK A01 T03360110  RH  025%=      5-min Rain = 0
KAI1 210003Z 21006KT 34/11 A2976 RMK A01 T03350108  RH  025%=      5-min Rain = 0
KAI1 210004Z 20007KT 34/11 A2976 RMK A01 T03360112  RH  026%=      5-min Rain = 0
KAI1 210005Z 20007KT 34/11 A2976 RMK A01 T03390110  RH  025%=      5-min Rain = 0
KAI1 210006Z 21007KT 34/11 A2976 RMK A01 T03420110  RH  024%=      5-min Rain = 0
KAI1 210007Z 21007KT 34/11 A2976 RMK A01 T03440113  RH  025%=      5-min Rain = 0
KAI1 210008Z 21006KT 35/11 A2976 RMK A01 T03450113  RH  024%=      5-min Rain = 0
KAI1 210009Z 21006KT 35/11 A2976 RMK A01 T03460114  RH  024%=      5-min Rain = 0
KAI1 210010Z 21006KT 35/11 A2976 RMK A01 T03480114  RH  024%=      5-min Rain = 0
KAI1 210011Z 21006KT 35/11 A2976 RMK A01 T03500110  RH  023%=      5-min Rain = 0
KAI1 210012Z 21006KT 35/11 A2976 RMK A01 T03510110  RH  023%=      5-min Rain = 0
KAI1 210013Z 21007KT 35/11 A2976 RMK A01 T03530106  RH  022%=      5-min Rain = 0
KAI1 210014Z 20007KT 35/08 A2976 RMK A01 T03540081  RH  019%=      5-min Rain = 0
KAI1 210015Z 21006KT 36/10 A2976 RMK A01 T03560100  RH  021%=      5-min Rain = 0
KAI1 210016Z 21006KT 36/11 A2976 RMK A01 T03560107  RH  022%=      5-min Rain = 0
KAI1 210017Z 21006KT 36/11 A2976 RMK A01 T03550109  RH  023%=      5-min Rain = 0
KAI1 210018Z 20007KT 35/11 A2976 RMK A01 T03530108  RH  023%=      5-min Rain = 0
KAI1 210019Z 20008KT 35/11 A2976 RMK A01 T03520106  RH  022%=      5-min Rain = 0
KAI1 210020Z 20007KT 35/09 A2976 RMK A01 T03530093  RH  020%=      5-min Rain = 0
KAI1 210021Z 20007KT 35/09 A2976 RMK A01 T03540089  RH  020%=      5-min Rain = 0
KAI1 210022Z 20009KT 36/08 A2976 RMK A01 T03550084  RH  019%=      5-min Rain = 0
KAI1 210023Z 20009KT 36/08 A2976 RMK A01 T03550076  RH  018%=      5-min Rain = 0
KAI1 210024Z 21009KT 36/07 A2976 RMK A01 T03560070  RH  017%=      5-min Rain = 0
KAI1 210025Z 20007KT 36/08 A2976 RMK A01 T03570078  RH  018%=      5-min Rain = 0
KAI1 210026Z 20007KT 36/09 A2976 RMK A01 T03550090  RH  020%=      5-min Rain = 0
KAI1 210027Z 20007KT 35/09 A2976 RMK A01 T03520089  RH  020%=      5-min Rain = 0
KAI1 210028Z 20008KT 35/08 A2976 RMK A01 T03520082  RH  019%=      5-min Rain = 0
KAI1 210029Z 20008KT 35/08 A2976 RMK A01 T03510083  RH  019%=      5-min Rain = 0
KAI1 210030Z 20007KT 35/09 A2976 RMK A01 T03510089  RH  020%=      5-min Rain = 0
KAI1 210031Z 20007KT 35/10 A2976 RMK A01 T03490097  RH  021%=      5-min Rain = 0
KAI1 210032Z 20007KT 35/09 A2976 RMK A01 T03480092  RH  021%=      5-min Rain = 0
KAI1 210033Z 20007KT 35/10 A2976 RMK A01 T03480096  RH  022%=      5-min Rain = 0
KAI1 210034Z 20007KT 35/10 A2976 RMK A01 T03470099  RH  022%=      5-min Rain = 0
KAI1 210035Z 20007KT 35/09 A2976 RMK A01 T03470094  RH  021%=      5-min Rain = 0
KAI1 210036Z 19007KT 35/10 A2976 RMK A01 T03460097  RH  022%=      5-min Rain = 0
KAI1 210037Z 20007KT 35/10 A2976 RMK A01 T03460104  RH  023%=      5-min Rain = 0
KAI1 210038Z 20007KT 35/10 A2976 RMK A01 T03450100  RH  022%=      5-min Rain = 0
KAI1 210039Z 20007KT 35/10 A2976 RMK A01 T03460098  RH  022%=      5-min Rain = 0
KAI1 210040Z 20007KT 35/10 A2976 RMK A01 T03460095  RH  022%=      5-min Rain = 0
KAI1 210041Z 20007KT 35/10 A2976 RMK A01 T03470097  RH  022%=      5-min Rain = 0
KAI1 210042Z 20007KT 35/10 A2976 RMK A01 T03470096  RH  022%=      5-min Rain = 0
KAI1 210043Z 20007KT 35/10 A2976 RMK A01 T03460100  RH  022%=      5-min Rain = 0
KAI1 210044Z 20007KT 35/10 A2976 RMK A01 T03460103  RH  023%=      5-min Rain = 0
KAI1 210045Z 19007KT 35/10 A2976 RMK A01 T03450103  RH  023%=      5-min Rain = 0
KAI1 210046Z 19007KT 35/10 A2976 RMK A01 T03460099  RH  022%=      5-min Rain = 0
KAI1 210047Z 19006KT 35/10 A2976 RMK A01 T03470095  RH  022%=      5-min Rain = 0
KAI1 210048Z 19006KT 35/10 A2976 RMK A01 T03480095  RH  021%=      5-min Rain = 0
KAI1 210049Z 20007KT 35/09 A2976 RMK A01 T03480088  RH  020%=      5-min Rain = 0
KAI1 210050Z 19007KT 35/08 A2976 RMK A01 T03480083  RH  020%=      5-min Rain = 0
KAI1 210051Z 19006KT 35/09 A2976 RMK A01 T03480088  RH  020%=      5-min Rain = 0
KAI1 210052Z 19007KT 35/09 A2976 RMK A01 T03480093  RH  021%=      5-min Rain = 0
KAI1 210053Z 19007KT 35/09 A2976 RMK A01 T03470091  RH  021%=      5-min Rain = 0
KAI1 210054Z 20007KT 35/09 A2976 RMK A01 T03470094  RH  021%=      5-min Rain = 0
KAI1 210055Z 20007KT 35/10 A2976 RMK A01 T03470098  RH  022%=      5-min Rain = 0
KAI1 210056Z 20007KT 35/10 A2976 RMK A01 T03450102  RH  023%=      5-min Rain = 0
KAI1 210057Z 19006KT 34/11 A2976 RMK A01 T03430106  RH  024%=      5-min Rain = 0
KAI1 210058Z 19006KT 34/11 A2976 RMK A01 T03420107  RH  024%=      5-min Rain = 0
KAI1 210059Z 19006KT 34/11 A2976 RMK A01 T03420106  RH  024%=      5-min Rain = 0
KAI1 210100Z 19007KT 34/09 A2976 RMK A01 T03420092  RH  022%=      5-min Rain = 0
KAI1 210101Z 19007KT 34/09 A2976 RMK A01 T03440092  RH  021%=      5-min Rain = 0
KAI1 210102Z 19006KT 34/10 A2976 RMK A01 T03440097  RH  022%=      5-min Rain = 0
KAI1 210103Z 19007KT 34/10 A2976 RMK A01 T03430095  RH  022%=      5-min Rain = 0
KAI1 210104Z 19007KT 34/09 A2976 RMK A01 T03430092  RH  021%=      5-min Rain = 0
KAI1 210105Z 19007KT 34/09 A2976 RMK A01 T03440092  RH  021%=      5-min Rain = 0
KAI1 210106Z 19007KT 34/09 A2976 RMK A01 T03440093  RH  021%=      5-min Rain = 0
KAI1 210107Z 19007KT 34/10 A2976 RMK A01 T03430095  RH  022%=      5-min Rain = 0
KAI1 210108Z 20007KT 34/10 A2976 RMK A01 T03420098  RH  023%=      5-min Rain = 0
KAI1 210109Z 19007KT 34/10 A2976 RMK A01 T03400099  RH  023%=      5-min Rain = 0
KAI1 210110Z 20007KT 34/10 A2976 RMK A01 T03380102  RH  024%=      5-min Rain = 0
KAI1 210111Z 20007KT 34/10 A2976 RMK A01 T03360103  RH  024%=      5-min Rain = 0
KAI1 210112Z 20007KT 33/11 A2976 RMK A01 T03340105  RH  025%=      5-min Rain = 0
KAI1 210113Z 19007KT 33/11 A2976 RMK A01 T03330106  RH  025%=      5-min Rain = 0
KAI1 210114Z 19008KT 33/10 A2976 RMK A01 T03320100  RH  024%=      5-min Rain = 0
KAI1 210115Z 19009KT 33/08 A2976 RMK A01 T03340083  RH  021%=      5-min Rain = 0
KAI1 210116Z 20008KT 34/09 A2976 RMK A01 T03360087  RH  022%=      5-min Rain = 0
KAI1 210117Z 20008KT 34/09 A2976 RMK A01 T03360090  RH  022%=      5-min Rain = 0
KAI1 210118Z 19007KT 33/09 A2976 RMK A01 T03340094  RH  023%=      5-min Rain = 0
KAI1 210119Z 19007KT 33/10 A2976 RMK A01 T03310098  RH  024%=      5-min Rain = 0
KAI1 210120Z 19007KT 33/10 A2976 RMK A01 T03290100  RH  025%=      5-min Rain = 0
KAI1 210121Z 20006KT 33/10 A2976 RMK A01 T03270103  RH  025%=      5-min Rain = 0
KAI1 210122Z 20006KT 33/11 A2976 RMK A01 T03250105  RH  026%=      5-min Rain = 0
KAI1 210123Z 20006KT 32/12 A2976 RMK A01 T03220117  RH  029%=      5-min Rain = 0
KAI1 210124Z 20006KT 32/12 A2976 RMK A01 T03180118  RH  029%=      5-min Rain = 0
KAI1 210125Z 20006KT 31/12 A2976 RMK A01 T03140121  RH  031%=      5-min Rain = 0
KAI1 210126Z 20006KT 31/12 A2976 RMK A01 T03120118  RH  031%=      5-min Rain = 0
KAI1 210127Z 20006KT 31/12 A2976 RMK A01 T03110118  RH  031%=      5-min Rain = 0
KAI1 210128Z 20007KT 31/12 A2976 RMK A01 T03100119  RH  031%=      5-min Rain = 0
KAI1 210129Z 20007KT 31/12 A2976 RMK A01 T03100121  RH  031%=      5-min Rain = 0
KAI1 210130Z 20006KT 31/12 A2976 RMK A01 T03100124  RH  032%=      5-min Rain = 0
KAI1 210131Z 19006KT 31/13 A2976 RMK A01 T03100130  RH  033%=      5-min Rain = 0
KAI1 210132Z 19007KT 31/13 A2976 RMK A01 T03080126  RH  033%=      5-min Rain = 0
KAI1 210133Z 19007KT 31/12 A2976 RMK A01 T03060119  RH  032%=      5-min Rain = 0
KAI1 210134Z 19007KT 31/11 A2976 RMK A01 T03050114  RH  031%=      5-min Rain = 0
KAI1 210135Z 19006KT 31/11 A2976 RMK A01 T03060112  RH  030%=      5-min Rain = 0
KAI1 210136Z 19006KT 31/11 A2976 RMK A01 T03050111  RH  030%=      5-min Rain = 0
KAI1 210137Z 18006KT 31/11 A2976 RMK A01 T03060109  RH  030%=      5-min Rain = 0
KAI1 210138Z 19007KT 31/11 A2976 RMK A01 T03080108  RH  029%=      5-min Rain = 0
KAI1 210139Z 18007KT 31/11 A2976 RMK A01 T03100106  RH  029%=      5-min Rain = 0
KAI1 210140Z 18007KT 31/11 A2976 RMK A01 T03110107  RH  028%=      5-min Rain = 0
KAI1 210141Z 18007KT 31/11 A2976 RMK A01 T03130106  RH  028%=      5-min Rain = 0
KAI1 210142Z 18007KT 31/11 A2976 RMK A01 T03140106  RH  028%=      5-min Rain = 0
KAI1 210143Z 18007KT 31/11 A2976 RMK A01 T03140107  RH  028%=      5-min Rain = 0
KAI1 210144Z 18007KT 32/11 A2976 RMK A01 T03150108  RH  028%=      5-min Rain = 0
KAI1 210145Z 18007KT 32/10 A2976 RMK A01 T03150104  RH  027%=      5-min Rain = 0
KAI1 210146Z 18007KT 32/10 A2976 RMK A01 T03150104  RH  027%=      5-min Rain = 0
KAI1 210147Z 18007KT 32/10 A2976 RMK A01 T03150103  RH  027%=      5-min Rain = 0
KAI1 210148Z 18008KT 32/10 A2976 RMK A01 T03150102  RH  027%=      5-min Rain = 0
KAI1 210149Z 18008KT 32/10 A2976 RMK A01 T03150103  RH  027%=      5-min Rain = 0
KAI1 210150Z 18008KT 31/10 A2976 RMK A01 T03140102  RH  027%=      5-min Rain = 0
KAI1 210151Z 18008KT 31/10 A2976 RMK A01 T03130103  RH  027%=      5-min Rain = 0
KAI1 210152Z 18008KT 31/10 A2976 RMK A01 T03130103  RH  027%=      5-min Rain = 0
KAI1 210153Z 19007KT 31/10 A2976 RMK A01 T03120103  RH  028%=      5-min Rain = 0
KAI1 210154Z 19007KT 31/10 A2976 RMK A01 T03110103  RH  028%=      5-min Rain = 0
KAI1 210155Z 18007KT 31/11 A2976 RMK A01 T03100105  RH  028%=      5-min Rain = 0
KAI1 210156Z 18007KT 31/11 A2976 RMK A01 T03080105  RH  029%=      5-min Rain = 0
KAI1 210157Z 18007KT 31/11 A2976 RMK A01 T03070105  RH  029%=      5-min Rain = 0
KAI1 210158Z 18008KT 31/11 A2976 RMK A01 T03060105  RH  029%=      5-min Rain = 0
KAI1 210159Z 18008KT 31/11 A2976 RMK A01 T03050107  RH  029%=      5-min Rain = 0
KAI1 210200Z 18008KT 30/11 A2976 RMK A01 T03040109  RH  030%=      5-min Rain = 0
KAI1 210201Z 18008KT 30/11 A2976 RMK A01 T03020109  RH  030%=      5-min Rain = 0
KAI1 210202Z 18008KT 30/11 A2976 RMK A01 T03020108  RH  030%=      5-min Rain = 0
KAI1 210203Z 18008KT 30/11 A2976 RMK A01 T03010109  RH  031%=      5-min Rain = 0
KAI1 210204Z 18008KT 30/11 A2976 RMK A01 T02990109  RH  031%=      5-min Rain = 0
KAI1 210205Z 18008KT 30/11 A2976 RMK A01 T02980109  RH  031%=      5-min Rain = 0
KAI1 210206Z 18008KT 30/11 A2976 RMK A01 T02960109  RH  031%=      5-min Rain = 0
KAI1 210207Z 18008KT 30/11 A2976 RMK A01 T02950109  RH  031%=      5-min Rain = 0
KAI1 210208Z 18009KT 29/11 A2976 RMK A01 T02940109  RH  032%=      5-min Rain = 0
KAI1 210209Z 18009KT 29/11 A2976 RMK A01 T02930109  RH  032%=      5-min Rain = 0
KAI1 210210Z 18008KT 29/11 A2976 RMK A01 T02930109  RH  032%=      5-min Rain = 0
KAI1 210211Z 18008KT 29/11 A2976 RMK A01 T02920108  RH  032%=      5-min Rain = 0
KAI1 210212Z 18008KT 29/11 A2976 RMK A01 T02910107  RH  032%=      5-min Rain = 0
KAI1 210213Z 18008KT 29/11 A2976 RMK A01 T02910108  RH  032%=      5-min Rain = 0
KAI1 210214Z 18009KT 29/11 A2976 RMK A01 T02900108  RH  032%=      5-min Rain = 0
KAI1 210215Z 19009KT 29/11 A2976 RMK A01 T02900108  RH  032%=      5-min Rain = 0
KAI1 210216Z 19008KT 29/11 A2976 RMK A01 T02890108  RH  032%=      5-min Rain = 0
KAI1 210217Z 19008KT 29/11 A2976 RMK A01 T02890108  RH  032%=      5-min Rain = 0
KAI1 210218Z 19008KT 29/11 A2976 RMK A01 T02890107  RH  032%=      5-min Rain = 0
KAI1 210219Z 19008KT 29/11 A2976 RMK A01 T02880106  RH  032%=      5-min Rain = 0
KAI1 210220Z 19008KT 29/11 A2976 RMK A01 T02890105  RH  032%=      5-min Rain = 0
KAI1 210221Z 19005KT 29/11 A2976 RMK A01 T02880112  RH  033%=      5-min Rain = 0
KAI1 210222Z 19002KT 28/12 A2976 RMK A01 T02820115  RH  035%=      5-min Rain = 0
KAI1 210223Z 18004KT 28/11 A2976 RMK A01 T02770112  RH  036%=      5-min Rain = 0
KAI1 210224Z 18006KT 27/11 A2976 RMK A01 T02740111  RH  036%=      5-min Rain = 0
KAI1 210225Z 18007KT 27/11 A2976 RMK A01 T02720111  RH  037%=      5-min Rain = 0
KAI1 210226Z 18007KT 27/11 A2976 RMK A01 T02710113  RH  037%=      5-min Rain = 0
KAI1 210227Z 19007KT 27/11 A2976 RMK A01 T02720111  RH  037%=      5-min Rain = 0
KAI1 210228Z 18007KT 27/11 A2976 RMK A01 T02740110  RH  036%=      5-min Rain = 0
KAI1 210229Z 19007KT 28/11 A2976 RMK A01 T02750111  RH  036%=      5-min Rain = 0
KAI1 210230Z 19008KT 28/11 A2976 RMK A01 T02760110  RH  036%=      5-min Rain = 0
KAI1 210231Z 19008KT 28/11 A2976 RMK A01 T02770109  RH  035%=      5-min Rain = 0
KAI1 210232Z 19008KT 28/11 A2976 RMK A01 T02780108  RH  035%=      5-min Rain = 0
KAI1 210233Z 19008KT 28/11 A2976 RMK A01 T02790106  RH  034%=      5-min Rain = 0
KAI1 210234Z 19008KT 28/11 A2976 RMK A01 T02790105  RH  034%=      5-min Rain = 0
KAI1 210235Z 18008KT 28/11 A2976 RMK A01 T02800105  RH  034%=      5-min Rain = 0
KAI1 210236Z 18008KT 28/11 A2976 RMK A01 T02800106  RH  034%=      5-min Rain = 0
KAI1 210237Z 18008KT 28/11 A2976 RMK A01 T02790107  RH  034%=      5-min Rain = 0
KAI1 210238Z 18009KT 28/11 A2976 RMK A01 T02780106  RH  034%=      5-min Rain = 0
KAI1 210239Z 18009KT 28/11 A2976 RMK A01 T02780106  RH  034%=      5-min Rain = 0
KAI1 210240Z 18009KT 28/11 A2976 RMK A01 T02770106  RH  034%=      5-min Rain = 0
KAI1 210241Z 18009KT 28/11 A2976 RMK A01 T02760106  RH  035%=      5-min Rain = 0
KAI1 210242Z 18009KT 28/11 A2977 RMK A01 T02760105  RH  034%=      5-min Rain = 0
KAI1 210243Z 18009KT 28/11 A2977 RMK A01 T02750105  RH  034%=      5-min Rain = 0
KAI1 210244Z 18009KT 28/11 A2977 RMK A01 T02750107  RH  035%=      5-min Rain = 0
KAI1 210245Z 18008KT 27/11 A2977 RMK A01 T02740107  RH  035%=      5-min Rain = 0
KAI1 210246Z 18009KT 27/11 A2977 RMK A01 T02730107  RH  035%=      5-min Rain = 0
KAI1 210247Z 18009KT 27/11 A2977 RMK A01 T02730105  RH  035%=      5-min Rain = 0
KAI1 210248Z 18010KT 27/10 A2977 RMK A01 T02730102  RH  034%=      5-min Rain = 0
KAI1 210249Z 19009KT 27/10 A2977 RMK A01 T02740099  RH  033%=      5-min Rain = 0
KAI1 210250Z 19009KT 28/10 A2977 RMK A01 T02760096  RH  032%=      5-min Rain = 0
KAI1 210251Z 19009KT 28/10 A2977 RMK A01 T02790095  RH  032%=      5-min Rain = 0
KAI1 210252Z 19009KT 28/10 A2977 RMK A01 T02800095  RH  032%=      5-min Rain = 0
KAI1 210253Z 19009KT 28/09 A2977 RMK A01 T02800094  RH  031%=      5-min Rain = 0
KAI1 210254Z 18009KT 28/10 A2977 RMK A01 T02810095  RH  031%=      5-min Rain = 0
KAI1 210255Z 18009KT 28/09 A2977 RMK A01 T02800094  RH  031%=      5-min Rain = 0
KAI1 210256Z 18009KT 28/10 A2977 RMK A01 T02800095  RH  031%=      5-min Rain = 0
KAI1 210257Z 18009KT 28/10 A2977 RMK A01 T02790095  RH  032%=      5-min Rain = 0
KAI1 210258Z 18009KT 28/09 A2977 RMK A01 T02780093  RH  031%=      5-min Rain = 0
KAI1 210259Z 18009KT 28/10 A2977 RMK A01 T02780096  RH  032%=      5-min Rain = 0
KAI1 210300Z 18009KT 28/10 A2977 RMK A01 T02760100  RH  033%=      5-min Rain = 0
KAI1 210301Z 18009KT 27/10 A2977 RMK A01 T02740100  RH  034%=      5-min Rain = 0
KAI1 210302Z 18010KT 27/10 A2977 RMK A01 T02720100  RH  034%=      5-min Rain = 0
KAI1 210303Z 18010KT 27/10 A2977 RMK A01 T02700103  RH  035%=      5-min Rain = 0
KAI1 210304Z 18010KT 27/10 A2977 RMK A01 T02680103  RH  035%=      5-min Rain = 0
KAI1 210305Z 18010KT 27/10 A2977 RMK A01 T02660103  RH  036%=      5-min Rain = 0
KAI1 210306Z 18011KT 27/10 A2977 RMK A01 T02650101  RH  036%=      5-min Rain = 0
KAI1 210307Z 18010KT 26/10 A2977 RMK A01 T02640099  RH  035%=      5-min Rain = 0
KAI1 210308Z 18011KT 26/10 A2977 RMK A01 T02640098  RH  035%=      5-min Rain = 0
KAI1 210309Z 18011KT 27/09 A2977 RMK A01 T02650094  RH  034%=      5-min Rain = 0
KAI1 210310Z 18011KT 27/09 A2977 RMK A01 T02650094  RH  034%=      5-min Rain = 0
KAI1 210311Z 18011KT 27/09 A2977 RMK A01 T02660092  RH  033%=      5-min Rain = 0
KAI1 210312Z 18011KT 27/09 A2977 RMK A01 T02680088  RH  032%=      5-min Rain = 0
KAI1 210313Z 18011KT 27/09 A2977 RMK A01 T02700086  RH  031%=      5-min Rain = 0
KAI1 210314Z 18010KT 27/09 A2977 RMK A01 T02720086  RH  031%=      5-min Rain = 0
KAI1 210315Z 18010KT 27/09 A2977 RMK A01 T02720088  RH  031%=      5-min Rain = 0
KAI1 210316Z 18010KT 27/09 A2977 RMK A01 T02710090  RH  032%=      5-min Rain = 0
KAI1 210317Z 18010KT 27/09 A2977 RMK A01 T02700089  RH  032%=      5-min Rain = 0
KAI1 210318Z 19009KT 27/09 A2977 RMK A01 T02700088  RH  032%=      5-min Rain = 0
KAI1 210319Z 23007KT 27/09 A2977 RMK A01 T02680094  RH  033%=      5-min Rain = 0
KAI1 210320Z 19008KT 26/10 A2977 RMK A01 T02600098  RH  036%=      5-min Rain = 0
KAI1 210321Z 19008KT 26/09 A2977 RMK A01 T02570093  RH  035%=      5-min Rain = 0
KAI1 210322Z 19008KT 26/09 A2977 RMK A01 T02580094  RH  036%=      5-min Rain = 0
KAI1 210323Z 21006KT 26/10 A2978 RMK A01 T02570103  RH  038%=      5-min Rain = 0
KAI1 210324Z 18008KT 25/11 A2978 RMK A01 T02500107  RH  041%=      5-min Rain = 0
KAI1 210325Z 18009KT 24/10 A2978 RMK A01 T02440104  RH  041%=      5-min Rain = 0
KAI1 210326Z 18008KT 24/10 A2978 RMK A01 T02430100  RH  040%=      5-min Rain = 0
KAI1 210327Z 18008KT 24/10 A2978 RMK A01 T02440097  RH  039%=      5-min Rain = 0
KAI1 210328Z 18008KT 25/10 A2978 RMK A01 T02470098  RH  039%=      5-min Rain = 0
KAI1 210329Z 18008KT 25/10 A2978 RMK A01 T02490100  RH  039%=      5-min Rain = 0
KAI1 210330Z 19007KT 25/10 A2978 RMK A01 T02490102  RH  039%=      5-min Rain = 0
KAI1 210331Z 19004KT 25/11 A2978 RMK A01 T02480110  RH  042%=      5-min Rain = 0
KAI1 210332Z 21003KT 24/11 A2978 RMK A01 T02400111  RH  044%=      5-min Rain = 0
KAI1 210333Z 19004KT 24/11 A2978 RMK A01 T02350108  RH  045%=      5-min Rain = 0
KAI1 210334Z 19005KT 23/11 A2978 RMK A01 T02330105  RH  044%=      5-min Rain = 0
KAI1 210335Z 19005KT 23/10 A2978 RMK A01 T02340103  RH  044%=      5-min Rain = 0
KAI1 210336Z 19006KT 24/10 A2978 RMK A01 T02360104  RH  043%=      5-min Rain = 0
KAI1 210337Z 18006KT 24/10 A2978 RMK A01 T02370103  RH  043%=      5-min Rain = 0
KAI1 210338Z 18006KT 24/10 A2978 RMK A01 T02380103  RH  043%=      5-min Rain = 0
KAI1 210339Z 18006KT 24/11 A2978 RMK A01 T02380105  RH  043%=      5-min Rain = 0
KAI1 210340Z 18006KT 24/11 A2978 RMK A01 T02380106  RH  043%=      5-min Rain = 0
KAI1 210341Z 17006KT 24/11 A2978 RMK A01 T02370107  RH  044%=      5-min Rain = 0
KAI1 210342Z 16007KT 24/11 A2978 RMK A01 T02360110  RH  045%=      5-min Rain = 0
KAI1 210343Z 15007KT 24/11 A2978 RMK A01 T02350111  RH  046%=      5-min Rain = 0
KAI1 210344Z 15008KT 23/12 A2978 RMK A01 T02330115  RH  047%=      5-min Rain = 0
KAI1 210345Z 15008KT 23/12 A2978 RMK A01 T02310117  RH  049%=      5-min Rain = 0
KAI1 210346Z 14007KT 23/12 A2978 RMK A01 T02310118  RH  049%=      5-min Rain = 0
KAI1 210347Z 14008KT 23/12 A2978 RMK A01 T02300119  RH  049%=      5-min Rain = 0
KAI1 210348Z 15008KT 23/12 A2978 RMK A01 T02300119  RH  050%=      5-min Rain = 0
KAI1 210349Z 16009KT 23/12 A2978 RMK A01 T02300119  RH  050%=      5-min Rain = 0
KAI1 210350Z 16008KT 23/12 A2978 RMK A01 T02290118  RH  050%=      5-min Rain = 0
KAI1 210351Z 16008KT 23/12 A2978 RMK A01 T02290118  RH  050%=      5-min Rain = 0
KAI1 210352Z 16008KT 23/12 A2978 RMK A01 T02290117  RH  049%=      5-min Rain = 0
KAI1 210353Z 16009KT 23/12 A2978 RMK A01 T02290116  RH  049%=      5-min Rain = 0
KAI1 210354Z 15009KT 23/12 A2979 RMK A01 T02290116  RH  049%=      5-min Rain = 0
KAI1 210355Z 15009KT 23/12 A2979 RMK A01 T02290116  RH  049%=      5-min Rain = 0
KAI1 210356Z 15009KT 23/12 A2979 RMK A01 T02290116  RH  049%=      5-min Rain = 0
KAI1 210357Z 15010KT 23/12 A2979 RMK A01 T02290118  RH  050%=      5-min Rain = 0
KAI1 210358Z 14010KT 23/12 A2979 RMK A01 T02290121  RH  050%=      5-min Rain = 0
KAI1 210359Z 14010KT 23/12 A2979 RMK A01 T02280122  RH  051%=      5-min Rain = 0
KAI1 210400Z 14009KT 23/12 A2979 RMK A01 T02270120  RH  051%=      5-min Rain = 0
KAI1 210401Z 14008KT 23/12 A2979 RMK A01 T02260119  RH  051%=      5-min Rain = 0
KAI1 210402Z 15009KT 23/12 A2979 RMK A01 T02260118  RH  051%=      5-min Rain = 0
KAI1 210403Z 15010KT 23/11 A2979 RMK A01 T02260114  RH  049%=      5-min Rain = 0
KAI1 210404Z 16011KT 23/11 A2979 RMK A01 T02260111  RH  048%=      5-min Rain = 0
KAI1 210405Z 16011KT 23/11 A2979 RMK A01 T02280110  RH  047%=      5-min Rain = 0
KAI1 210406Z 16010KT 23/11 A2979 RMK A01 T02300110  RH  047%=      5-min Rain = 0
KAI1 210407Z 16010KT 23/11 A2979 RMK A01 T02300108  RH  046%=      5-min Rain = 0
KAI1 210408Z 16010KT 23/11 A2979 RMK A01 T02310107  RH  046%=      5-min Rain = 0
KAI1 210409Z 16011KT 23/11 A2979 RMK A01 T02320107  RH  045%=      5-min Rain = 0
KAI1 210410Z 16010KT 23/11 A2979 RMK A01 T02320107  RH  045%=      5-min Rain = 0
KAI1 210411Z 16010KT 23/11 A2979 RMK A01 T02320107  RH  045%=      5-min Rain = 0
KAI1 210412Z 16009KT 23/11 A2979 RMK A01 T02320107  RH  045%=      5-min Rain = 0
KAI1 210413Z 16009KT 23/11 A2979 RMK A01 T02330108  RH  045%=      5-min Rain = 0
KAI1 210414Z 16010KT 23/11 A2979 RMK A01 T02330108  RH  045%=      5-min Rain = 0
KAI1 210415Z 15010KT 23/11 A2979 RMK A01 T02320109  RH  046%=      5-min Rain = 0
KAI1 210416Z 15011KT 23/11 A2979 RMK A01 T02310108  RH  046%=      5-min Rain = 0
KAI1 210417Z 16010KT 23/11 A2979 RMK A01 T02310108  RH  046%=      5-min Rain = 0
KAI1 210418Z 16010KT 23/11 A2979 RMK A01 T02300108  RH  046%=      5-min Rain = 0
KAI1 210419Z 16010KT 23/11 A2979 RMK A01 T02300108  RH  046%=      5-min Rain = 0
KAI1 210420Z 16010KT 23/11 A2979 RMK A01 T02300107  RH  046%=      5-min Rain = 0
KAI1 210421Z 17010KT 23/11 A2979 RMK A01 T02300105  RH  045%=      5-min Rain = 0
KAI1 210422Z 17010KT 23/11 A2979 RMK A01 T02310105  RH  045%=      5-min Rain = 0
KAI1 210423Z 17010KT 23/11 A2979 RMK A01 T02320105  RH  045%=      5-min Rain = 0
KAI1 210424Z 17010KT 23/11 A2979 RMK A01 T02320105  RH  044%=      5-min Rain = 0
KAI1 210425Z 16010KT 23/11 A2979 RMK A01 T02320105  RH  045%=      5-min Rain = 0
KAI1 210426Z 16010KT 23/11 A2979 RMK A01 T02320105  RH  045%=      5-min Rain = 0
KAI1 210427Z 17010KT 23/11 A2978 RMK A01 T02330106  RH  045%=      5-min Rain = 0
KAI1 210428Z 17010KT 23/11 A2978 RMK A01 T02320106  RH  045%=      5-min Rain = 0
KAI1 210429Z 17010KT 23/11 A2978 RMK A01 T02320106  RH  045%=      5-min Rain = 0
KAI1 210430Z 17009KT 23/11 A2978 RMK A01 T02310106  RH  045%=      5-min Rain = 0
KAI1 210431Z 17010KT 23/11 A2978 RMK A01 T02300106  RH  045%=      5-min Rain = 0
KAI1 210432Z 16009KT 23/11 A2978 RMK A01 T02300106  RH  046%=      5-min Rain = 0
KAI1 210433Z 16010KT 23/11 A2978 RMK A01 T02290106  RH  046%=      5-min Rain = 0
KAI1 210434Z 16010KT 23/11 A2978 RMK A01 T02280105  RH  046%=      5-min Rain = 0
KAI1 210435Z 16009KT 23/11 A2978 RMK A01 T02280106  RH  046%=      5-min Rain = 0
KAI1 210436Z 16009KT 23/11 A2978 RMK A01 T02270107  RH  047%=      5-min Rain = 0
KAI1 210437Z 16009KT 23/11 A2978 RMK A01 T02260110  RH  048%=      5-min Rain = 0
KAI1 210438Z 16009KT 23/11 A2978 RMK A01 T02250113  RH  049%=      5-min Rain = 0
KAI1 210439Z 16009KT 22/11 A2978 RMK A01 T02230113  RH  050%=      5-min Rain = 0
KAI1 210440Z 16009KT 22/11 A2978 RMK A01 T02220112  RH  050%=      5-min Rain = 0
KAI1 210441Z 16009KT 22/11 A2978 RMK A01 T02210110  RH  049%=      5-min Rain = 0
KAI1 210442Z 16009KT 22/11 A2978 RMK A01 T02210108  RH  049%=      5-min Rain = 0
KAI1 210443Z 16009KT 22/11 A2978 RMK A01 T02200107  RH  049%=      5-min Rain = 0
KAI1 210444Z 16009KT 22/11 A2978 RMK A01 T02200106  RH  048%=      5-min Rain = 0
KAI1 210445Z 16009KT 22/11 A2978 RMK A01 T02190106  RH  049%=      5-min Rain = 0
KAI1 210446Z 16009KT 22/11 A2978 RMK A01 T02190106  RH  049%=      5-min Rain = 0
KAI1 210447Z 16009KT 22/11 A2978 RMK A01 T02190106  RH  049%=      5-min Rain = 0
KAI1 210448Z 17009KT 22/11 A2978 RMK A01 T02190106  RH  049%=      5-min Rain = 0
KAI1 210449Z 17009KT 22/11 A2978 RMK A01 T02190106  RH  049%=      5-min Rain = 0
KAI1 210450Z 17008KT 22/11 A2978 RMK A01 T02190105  RH  048%=      5-min Rain = 0
KAI1 210451Z 18008KT 22/11 A2978 RMK A01 T02190105  RH  048%=      5-min Rain = 0
KAI1 210452Z 18008KT 22/11 A2978 RMK A01 T02200105  RH  048%=      5-min Rain = 0
KAI1 210453Z 18008KT 22/10 A2978 RMK A01 T02200104  RH  048%=      5-min Rain = 0
KAI1 210454Z 18008KT 22/10 A2978 RMK A01 T02210104  RH  047%=      5-min Rain = 0
KAI1 210455Z 19007KT 22/11 A2978 RMK A01 T02230105  RH  047%=      5-min Rain = 0
KAI1 210456Z 19007KT 22/10 A2978 RMK A01 T02230103  RH  047%=      5-min Rain = 0
KAI1 210457Z 19009KT 22/10 A2978 RMK A01 T02210100  RH  046%=      5-min Rain = 0
KAI1 210458Z 19009KT 22/10 A2978 RMK A01 T02210100  RH  046%=      5-min Rain = 0
KAI1 210459Z 20008KT 22/10 A2978 RMK A01 T02190100  RH  046%=      5-min Rain = 0

Page generated in 0.0825 seconds.